LGX48GP KJFK-EGLL
Flight info
| Callsign | LGX48GP |
|---|---|
| Flight time | 6h 29m |
| Altitude | 37000 |
| Route | GREKI DCT ACK DCT TUDEP/M082F370 DCT 52N050W 53N040W 54N030W 55N020W DCT RESNO/N0469F370 DCT NETKI DCT LAM |
| Aircraft | A346/H-SDE2E3FGHIJ3J4J5M1RWXY/LB1D1 |
Departure
| Time | 2026-05-06 05:27 |
|---|---|
| Airport | John F. Kennedy International Airport (KJFK) |
Arrival
| Time | 2026-05-06 11:56 |
|---|---|
| Airport | London Heathrow Airport (EGLL) |
| Time | Latitude | Longitude | Altitude | Speed | Heading |
|---|---|---|---|---|---|
| 2026-05-06 05:00 | 40.64355 | -73.77816 | 25 ft | 0 kts | 251° |
| 2026-05-06 05:16 | 40.64357 | -73.77808 | 25 ft | 1 kts | 251° |
| 2026-05-06 05:16 | 40.64360 | -73.77795 | 25 ft | 2 kts | 244° |
| 2026-05-06 05:17 | 40.64369 | -73.77780 | 25 ft | 2 kts | 217° |
| 2026-05-06 05:17 | 40.64382 | -73.77770 | 25 ft | 2 kts | 197° |
| 2026-05-06 05:17 | 40.64396 | -73.77767 | 24 ft | 2 kts | 178° |
| 2026-05-06 05:17 | 40.64411 | -73.77770 | 25 ft | 2 kts | 157° |
| 2026-05-06 05:18 | 40.64423 | -73.77780 | 24 ft | 2 kts | 137° |
| 2026-05-06 05:18 | 40.64429 | -73.77788 | 24 ft | 0 kts | 125° |
| 2026-05-06 05:18 | 40.64431 | -73.77792 | 24 ft | 0 kts | 125° |
| 2026-05-06 05:21 | 40.64428 | -73.77785 | 24 ft | 3 kts | 125° |
| 2026-05-06 05:21 | 40.64402 | -73.77739 | 25 ft | 9 kts | 127° |
| 2026-05-06 05:22 | 40.64339 | -73.77670 | 25 ft | 14 kts | 148° |
| 2026-05-06 05:22 | 40.64249 | -73.77601 | 24 ft | 15 kts | 151° |
| 2026-05-06 05:22 | 40.64150 | -73.77528 | 24 ft | 17 kts | 146° |
| 2026-05-06 05:22 | 40.64071 | -73.77429 | 24 ft | 15 kts | 130° |
| 2026-05-06 05:23 | 40.64029 | -73.77329 | 25 ft | 9 kts | 76° |
| 2026-05-06 05:23 | 40.64097 | -73.77246 | 24 ft | 17 kts | 31° |
| 2026-05-06 05:23 | 40.64339 | -73.77057 | 25 ft | 21 kts | 31° |
| 2026-05-06 05:24 | 40.64478 | -73.76991 | 24 ft | 22 kts | 11° |
| 2026-05-06 05:24 | 40.64621 | -73.76904 | 24 ft | 23 kts | 30° |
| 2026-05-06 05:24 | 40.64760 | -73.76793 | 24 ft | 24 kts | 31° |
| 2026-05-06 05:24 | 40.64908 | -73.76676 | 25 ft | 25 kts | 31° |
| 2026-05-06 05:25 | 40.65035 | -73.76576 | 24 ft | 11 kts | 30° |
| 2026-05-06 05:25 | 40.65095 | -73.76508 | 24 ft | 11 kts | 71° |
| 2026-05-06 05:25 | 40.65071 | -73.76405 | 24 ft | 13 kts | 122° |
| 2026-05-06 05:25 | 40.65019 | -73.76368 | 25 ft | 8 kts | 188° |
| 2026-05-06 05:26 | 40.64977 | -73.76391 | 25 ft | 0 kts | 210° |
| 2026-05-06 05:26 | 40.64961 | -73.76403 | 24 ft | 17 kts | 210° |
| 2026-05-06 05:26 | 40.64647 | -73.76643 | 25 ft | 85 kts | 210° |
| 2026-05-06 05:26 | 40.63961 | -73.77179 | 25 ft | 141 kts | 210° |
| 2026-05-06 05:27 | 40.63026 | -73.77923 | 213 ft | 166 kts | 211° |
| 2026-05-06 05:27 | 40.62074 | -73.78722 | 820 ft | 159 kts | 214° |
| 2026-05-06 05:27 | 40.61173 | -73.79506 | 1441 ft | 157 kts | 212° |
| 2026-05-06 05:27 | 40.60241 | -73.80237 | 1944 ft | 160 kts | 212° |
| 2026-05-06 05:28 | 40.59232 | -73.80992 | 2223 ft | 175 kts | 212° |
| 2026-05-06 05:28 | 40.58115 | -73.81812 | 2506 ft | 192 kts | 212° |
| 2026-05-06 05:28 | 40.56878 | -73.82705 | 2793 ft | 211 kts | 211° |
| 2026-05-06 05:28 | 40.55523 | -73.83607 | 3228 ft | 228 kts | 203° |
| 2026-05-06 05:29 | 40.53894 | -73.83610 | 3895 ft | 250 kts | 169° |
| 2026-05-06 05:29 | 40.52385 | -73.82402 | 4597 ft | 272 kts | 141° |
| 2026-05-06 05:29 | 40.51423 | -73.80196 | 5293 ft | 294 kts | 107° |
| 2026-05-06 05:29 | 40.51445 | -73.77472 | 6001 ft | 308 kts | 78° |
| 2026-05-06 05:30 | 40.52040 | -73.74783 | 6771 ft | 311 kts | 73° |
| 2026-05-06 05:30 | 40.52717 | -73.72085 | 7576 ft | 312 kts | 73° |
| 2026-05-06 05:30 | 40.53389 | -73.69377 | 8410 ft | 312 kts | 74° |
| 2026-05-06 05:30 | 40.54031 | -73.66692 | 9164 ft | 315 kts | 75° |
| 2026-05-06 05:31 | 40.54670 | -73.63944 | 9914 ft | 316 kts | 76° |
| 2026-05-06 05:31 | 40.55297 | -73.61166 | 10564 ft | 323 kts | 76° |
| 2026-05-06 05:31 | 40.55942 | -73.58270 | 10920 ft | 339 kts | 76° |
| 2026-05-06 05:31 | 40.56617 | -73.55217 | 11232 ft | 357 kts | 76° |
| 2026-05-06 05:32 | 40.57325 | -73.52004 | 11543 ft | 374 kts | 75° |
| 2026-05-06 05:32 | 40.58062 | -73.48657 | 11831 ft | 391 kts | 76° |
| 2026-05-06 05:32 | 40.58826 | -73.45183 | 12139 ft | 407 kts | 75° |
| 2026-05-06 05:32 | 40.59627 | -73.41537 | 12705 ft | 415 kts | 75° |
| 2026-05-06 05:33 | 40.60419 | -73.37933 | 13394 ft | 418 kts | 75° |
| 2026-05-06 05:33 | 40.61227 | -73.34247 | 14065 ft | 422 kts | 76° |
| 2026-05-06 05:33 | 40.62041 | -73.30532 | 14695 ft | 427 kts | 76° |
| 2026-05-06 05:33 | 40.62866 | -73.26743 | 15319 ft | 431 kts | 76° |
| 2026-05-06 05:34 | 40.63685 | -73.22980 | 15885 ft | 437 kts | 76° |
| 2026-05-06 05:34 | 40.64520 | -73.19131 | 16497 ft | 440 kts | 76° |
| 2026-05-06 05:34 | 40.65363 | -73.15239 | 17095 ft | 444 kts | 76° |
| 2026-05-06 05:34 | 40.66204 | -73.11349 | 17652 ft | 449 kts | 75° |
| 2026-05-06 05:35 | 40.67069 | -73.07342 | 18169 ft | 454 kts | 75° |
| 2026-05-06 05:35 | 40.67923 | -73.03382 | 18717 ft | 458 kts | 75° |
| 2026-05-06 05:35 | 40.68793 | -72.99342 | 19265 ft | 462 kts | 75° |
| 2026-05-06 05:35 | 40.69667 | -72.95270 | 19822 ft | 465 kts | 75° |
| 2026-05-06 05:36 | 40.70545 | -72.91170 | 20347 ft | 468 kts | 75° |
| 2026-05-06 05:36 | 40.71434 | -72.87014 | 20870 ft | 472 kts | 74° |
| 2026-05-06 05:36 | 40.72317 | -72.82890 | 21374 ft | 475 kts | 75° |
| 2026-05-06 05:36 | 40.73212 | -72.78690 | 21879 ft | 478 kts | 74° |
| 2026-05-06 05:37 | 40.74116 | -72.74441 | 22364 ft | 482 kts | 74° |
| 2026-05-06 05:37 | 40.75013 | -72.70216 | 22843 ft | 485 kts | 74° |
| 2026-05-06 05:37 | 40.75919 | -72.65948 | 23331 ft | 488 kts | 75° |
| 2026-05-06 05:37 | 40.76833 | -72.61622 | 23802 ft | 491 kts | 74° |
| 2026-05-06 05:38 | 40.77742 | -72.57315 | 24248 ft | 495 kts | 75° |
| 2026-05-06 05:38 | 40.78661 | -72.52953 | 24720 ft | 497 kts | 74° |
| 2026-05-06 05:38 | 40.79586 | -72.48545 | 25177 ft | 500 kts | 74° |
| 2026-05-06 05:38 | 40.80513 | -72.44122 | 25641 ft | 503 kts | 74° |
| 2026-05-06 05:39 | 40.81440 | -72.39692 | 26083 ft | 506 kts | 74° |
| 2026-05-06 05:39 | 40.82381 | -72.35186 | 26475 ft | 510 kts | 74° |
| 2026-05-06 05:39 | 40.83315 | -72.30699 | 26880 ft | 513 kts | 75° |
| 2026-05-06 05:39 | 40.84256 | -72.26175 | 27279 ft | 515 kts | 75° |
| 2026-05-06 05:40 | 40.85203 | -72.21615 | 27690 ft | 518 kts | 75° |
| 2026-05-06 05:40 | 40.86161 | -72.16976 | 28114 ft | 520 kts | 74° |
| 2026-05-06 05:40 | 40.87105 | -72.12406 | 28673 ft | 518 kts | 74° |
| 2026-05-06 05:40 | 40.88044 | -72.07844 | 29287 ft | 515 kts | 74° |
| 2026-05-06 05:41 | 40.88969 | -72.03336 | 29835 ft | 514 kts | 74° |
| 2026-05-06 05:41 | 40.89904 | -71.98776 | 30383 ft | 513 kts | 73° |
| 2026-05-06 05:41 | 40.90831 | -71.94256 | 30944 ft | 511 kts | 73° |
| 2026-05-06 05:41 | 40.91755 | -71.89736 | 31504 ft | 509 kts | 73° |
| 2026-05-06 05:42 | 40.92669 | -71.85251 | 32067 ft | 507 kts | 74° |
| 2026-05-06 05:42 | 40.93584 | -71.80753 | 32602 ft | 506 kts | 73° |
| 2026-05-06 05:42 | 40.94485 | -71.76308 | 33120 ft | 504 kts | 73° |
| 2026-05-06 05:42 | 40.95381 | -71.71887 | 33613 ft | 502 kts | 73° |
| 2026-05-06 05:43 | 40.96282 | -71.67429 | 34079 ft | 501 kts | 73° |
| 2026-05-06 05:43 | 40.97169 | -71.63026 | 34502 ft | 500 kts | 73° |
| 2026-05-06 05:43 | 40.98067 | -71.58557 | 34837 ft | 499 kts | 73° |
| 2026-05-06 05:43 | 40.98947 | -71.54169 | 35143 ft | 498 kts | 73° |
| 2026-05-06 05:44 | 40.99832 | -71.49738 | 35431 ft | 498 kts | 73° |
| 2026-05-06 05:44 | 41.00715 | -71.45324 | 35669 ft | 499 kts | 73° |
| 2026-05-06 05:44 | 41.01595 | -71.40908 | 36123 ft | 501 kts | 73° |
| 2026-05-06 05:44 | 41.02490 | -71.36420 | 36349 ft | 503 kts | 73° |
| 2026-05-06 05:45 | 41.03370 | -71.31992 | 36612 ft | 503 kts | 73° |
| 2026-05-06 05:45 | 41.04259 | -71.27506 | 36834 ft | 503 kts | 73° |
| 2026-05-06 05:45 | 41.05143 | -71.23035 | 36991 ft | 505 kts | 73° |
| 2026-05-06 05:45 | 41.06021 | -71.18584 | 36995 ft | 505 kts | 73° |
| 2026-05-06 05:46 | 41.07782 | -71.09634 | 36998 ft | 505 kts | 73° |
| 2026-05-06 05:46 | 41.09539 | -71.00659 | 36998 ft | 505 kts | 73° |
| 2026-05-06 05:47 | 41.11293 | -70.91651 | 37007 ft | 504 kts | 73° |
| 2026-05-06 05:47 | 41.13031 | -70.82685 | 37021 ft | 504 kts | 73° |
| 2026-05-06 05:48 | 41.14764 | -70.73714 | 37001 ft | 504 kts | 73° |
| 2026-05-06 05:48 | 41.16489 | -70.64728 | 37017 ft | 503 kts | 74° |
| 2026-05-06 05:49 | 41.18198 | -70.55792 | 37016 ft | 502 kts | 73° |
| 2026-05-06 05:49 | 41.19899 | -70.46850 | 37023 ft | 502 kts | 73° |
| 2026-05-06 05:50 | 41.21596 | -70.37897 | 37031 ft | 502 kts | 73° |
| 2026-05-06 05:50 | 41.23286 | -70.28935 | 37033 ft | 503 kts | 75° |
| 2026-05-06 05:51 | 41.24968 | -70.19963 | 37035 ft | 503 kts | 75° |
| 2026-05-06 05:51 | 41.26869 | -70.11074 | 37038 ft | 502 kts | 68° |
| 2026-05-06 05:52 | 41.29847 | -70.02808 | 37049 ft | 498 kts | 56° |
| 2026-05-06 05:52 | 41.33928 | -69.95422 | 37037 ft | 493 kts | 45° |
| 2026-05-06 05:53 | 41.38755 | -69.89015 | 37038 ft | 491 kts | 40° |
| 2026-05-06 05:53 | 41.43668 | -69.82806 | 37038 ft | 490 kts | 40° |
| 2026-05-06 05:54 | 41.48609 | -69.76514 | 37035 ft | 490 kts | 40° |
| 2026-05-06 05:54 | 41.53478 | -69.70267 | 37032 ft | 490 kts | 40° |
| 2026-05-06 05:55 | 41.58383 | -69.63948 | 37036 ft | 490 kts | 40° |
| 2026-05-06 05:55 | 41.63250 | -69.57658 | 37037 ft | 489 kts | 40° |
| 2026-05-06 05:56 | 41.68141 | -69.51324 | 37052 ft | 490 kts | 40° |
| 2026-05-06 05:56 | 41.73011 | -69.45003 | 36734 ft | 490 kts | 40° |
| 2026-05-06 05:57 | 41.75452 | -69.41829 | 36874 ft | 492 kts | 40° |
| 2026-05-06 05:57 | 41.77908 | -69.38632 | 36965 ft | 493 kts | 40° |
| 2026-05-06 05:57 | 41.82797 | -69.32257 | 37028 ft | 493 kts | 41° |
| 2026-05-06 05:58 | 41.87709 | -69.25839 | 37043 ft | 494 kts | 40° |
| 2026-05-06 05:58 | 41.92595 | -69.19439 | 37043 ft | 494 kts | 41° |
| 2026-05-06 05:59 | 41.97501 | -69.13001 | 37039 ft | 493 kts | 41° |
| 2026-05-06 05:59 | 42.02378 | -69.06583 | 37051 ft | 493 kts | 41° |
| 2026-05-06 06:00 | 42.07287 | -69.00108 | 37050 ft | 493 kts | 41° |
| 2026-05-06 06:00 | 42.12138 | -68.93694 | 37033 ft | 492 kts | 41° |
| 2026-05-06 06:01 | 42.17015 | -68.87234 | 37029 ft | 492 kts | 40° |
| 2026-05-06 06:01 | 42.21856 | -68.80808 | 37021 ft | 491 kts | 41° |
| 2026-05-06 06:02 | 42.26727 | -68.74326 | 37017 ft | 492 kts | 41° |
| 2026-05-06 06:02 | 42.31594 | -68.67833 | 37021 ft | 492 kts | 41° |
| 2026-05-06 06:03 | 42.36433 | -68.61368 | 37026 ft | 493 kts | 41° |
| 2026-05-06 06:03 | 42.41291 | -68.54853 | 37029 ft | 492 kts | 41° |
| 2026-05-06 06:04 | 42.46127 | -68.48361 | 37026 ft | 494 kts | 41° |
| 2026-05-06 06:04 | 42.51006 | -68.41791 | 37027 ft | 493 kts | 41° |
| 2026-05-06 06:05 | 42.55829 | -68.35284 | 37031 ft | 492 kts | 41° |
| 2026-05-06 06:05 | 42.60694 | -68.28705 | 37031 ft | 493 kts | 42° |
| 2026-05-06 06:06 | 42.65532 | -68.22144 | 37030 ft | 493 kts | 42° |
| 2026-05-06 06:06 | 42.70363 | -68.15580 | 37030 ft | 494 kts | 43° |
| 2026-05-06 06:07 | 42.75174 | -68.09026 | 37023 ft | 493 kts | 42° |
| 2026-05-06 06:07 | 42.80014 | -68.02422 | 37014 ft | 492 kts | 43° |
| 2026-05-06 06:08 | 42.84828 | -67.95834 | 37011 ft | 493 kts | 42° |
| 2026-05-06 06:08 | 42.89656 | -67.89208 | 37007 ft | 493 kts | 43° |
| 2026-05-06 06:09 | 42.94455 | -67.82610 | 37013 ft | 494 kts | 43° |
| 2026-05-06 06:09 | 42.99289 | -67.75944 | 37012 ft | 494 kts | 42° |
| 2026-05-06 06:10 | 43.04108 | -67.69290 | 37008 ft | 494 kts | 43° |
| 2026-05-06 06:10 | 43.08923 | -67.62625 | 37018 ft | 494 kts | 43° |
| 2026-05-06 06:11 | 43.13734 | -67.55946 | 37008 ft | 494 kts | 42° |
| 2026-05-06 06:11 | 43.18563 | -67.49226 | 37015 ft | 495 kts | 42° |
| 2026-05-06 06:12 | 43.23356 | -67.42542 | 37018 ft | 496 kts | 42° |
| 2026-05-06 06:12 | 43.28183 | -67.35797 | 37018 ft | 496 kts | 43° |
| 2026-05-06 06:13 | 43.32983 | -67.29067 | 37014 ft | 497 kts | 43° |
| 2026-05-06 06:13 | 43.37797 | -67.22304 | 37018 ft | 496 kts | 43° |
| 2026-05-06 06:14 | 43.42608 | -67.15533 | 37013 ft | 495 kts | 43° |
| 2026-05-06 06:14 | 43.47414 | -67.08752 | 37017 ft | 497 kts | 43° |
| 2026-05-06 06:15 | 43.52216 | -67.01955 | 37015 ft | 497 kts | 43° |
| 2026-05-06 06:15 | 43.57046 | -66.95103 | 37008 ft | 497 kts | 43° |
| 2026-05-06 06:16 | 43.61843 | -66.88282 | 37006 ft | 498 kts | 43° |
| 2026-05-06 06:16 | 43.66611 | -66.81485 | 37003 ft | 497 kts | 44° |
| 2026-05-06 06:17 | 43.71405 | -66.74639 | 37005 ft | 497 kts | 43° |
| 2026-05-06 06:17 | 43.76204 | -66.67760 | 37010 ft | 497 kts | 43° |
| 2026-05-06 06:18 | 43.80996 | -66.60883 | 37005 ft | 496 kts | 43° |
| 2026-05-06 06:18 | 43.85764 | -66.54022 | 37011 ft | 496 kts | 43° |
| 2026-05-06 06:19 | 43.90520 | -66.47157 | 37015 ft | 495 kts | 43° |
| 2026-05-06 06:19 | 43.95275 | -66.40282 | 37013 ft | 495 kts | 43° |
| 2026-05-06 06:20 | 44.00010 | -66.33414 | 37013 ft | 496 kts | 44° |
| 2026-05-06 06:20 | 44.04765 | -66.26500 | 37013 ft | 495 kts | 44° |
| 2026-05-06 06:21 | 44.09491 | -66.19616 | 37009 ft | 493 kts | 44° |
| 2026-05-06 06:21 | 44.14199 | -66.12738 | 37004 ft | 493 kts | 44° |
| 2026-05-06 06:22 | 44.18897 | -66.05856 | 37009 ft | 492 kts | 44° |
| 2026-05-06 06:22 | 44.23608 | -65.98940 | 37007 ft | 494 kts | 44° |
| 2026-05-06 06:23 | 44.28323 | -65.92002 | 37005 ft | 494 kts | 44° |
| 2026-05-06 06:23 | 44.33049 | -65.85030 | 37012 ft | 494 kts | 44° |
| 2026-05-06 06:24 | 44.37752 | -65.78075 | 37005 ft | 496 kts | 44° |
| 2026-05-06 06:24 | 44.42457 | -65.71094 | 37005 ft | 496 kts | 44° |
| 2026-05-06 06:25 | 44.47181 | -65.64074 | 37003 ft | 497 kts | 44° |
| 2026-05-06 06:26 | 44.54258 | -65.53519 | 37006 ft | 497 kts | 45° |
| 2026-05-06 06:26 | 44.58984 | -65.46450 | 37000 ft | 498 kts | 44° |
| 2026-05-06 06:27 | 44.63684 | -65.39399 | 36995 ft | 498 kts | 45° |
| 2026-05-06 06:27 | 44.68415 | -65.32284 | 36992 ft | 499 kts | 45° |
| 2026-05-06 06:28 | 44.73120 | -65.25191 | 36993 ft | 500 kts | 45° |
| 2026-05-06 06:28 | 44.77852 | -65.18040 | 36990 ft | 500 kts | 45° |
| 2026-05-06 06:29 | 44.82584 | -65.10868 | 36980 ft | 501 kts | 45° |
| 2026-05-06 06:29 | 44.87299 | -65.03703 | 36987 ft | 501 kts | 45° |
| 2026-05-06 06:30 | 44.92028 | -64.96500 | 36984 ft | 502 kts | 45° |
| 2026-05-06 06:30 | 44.96757 | -64.89276 | 36980 ft | 501 kts | 45° |
| 2026-05-06 06:31 | 45.01453 | -64.82088 | 36975 ft | 500 kts | 45° |
| 2026-05-06 06:31 | 45.06168 | -64.74852 | 36986 ft | 501 kts | 45° |
| 2026-05-06 06:32 | 45.10853 | -64.67638 | 36990 ft | 502 kts | 45° |
| 2026-05-06 06:32 | 45.15578 | -64.60346 | 36982 ft | 502 kts | 45° |
| 2026-05-06 06:33 | 45.20256 | -64.53108 | 36985 ft | 502 kts | 46° |
| 2026-05-06 06:33 | 45.24966 | -64.45798 | 36975 ft | 502 kts | 45° |
| 2026-05-06 06:34 | 45.29665 | -64.38490 | 36975 ft | 502 kts | 45° |
| 2026-05-06 06:34 | 45.34353 | -64.31184 | 36968 ft | 502 kts | 46° |
| 2026-05-06 06:35 | 45.39027 | -64.23872 | 36976 ft | 503 kts | 46° |
| 2026-05-06 06:35 | 45.43724 | -64.16509 | 36969 ft | 503 kts | 46° |
| 2026-05-06 06:36 | 45.48400 | -64.09158 | 36965 ft | 504 kts | 46° |
| 2026-05-06 06:36 | 45.53092 | -64.01760 | 36966 ft | 503 kts | 46° |
| 2026-05-06 06:37 | 45.57753 | -63.94395 | 36956 ft | 503 kts | 46° |
| 2026-05-06 06:37 | 45.62438 | -63.86970 | 36962 ft | 503 kts | 46° |
| 2026-05-06 06:38 | 45.67099 | -63.79562 | 36972 ft | 503 kts | 46° |
| 2026-05-06 06:38 | 45.71754 | -63.72145 | 36960 ft | 504 kts | 46° |
| 2026-05-06 06:39 | 45.76414 | -63.64701 | 36972 ft | 504 kts | 47° |
| 2026-05-06 06:39 | 45.81072 | -63.57237 | 36971 ft | 505 kts | 47° |
| 2026-05-06 06:40 | 45.85745 | -63.49734 | 36969 ft | 505 kts | 46° |
| 2026-05-06 06:40 | 45.90398 | -63.42238 | 36972 ft | 505 kts | 46° |
| 2026-05-06 06:41 | 45.95050 | -63.34724 | 36966 ft | 505 kts | 47° |
| 2026-05-06 06:41 | 45.99687 | -63.27216 | 36955 ft | 505 kts | 47° |
| 2026-05-06 06:42 | 46.04336 | -63.19665 | 36962 ft | 506 kts | 47° |
| 2026-05-06 06:42 | 46.08973 | -63.12114 | 36956 ft | 506 kts | 47° |
| 2026-05-06 06:43 | 46.13616 | -63.04531 | 36971 ft | 505 kts | 47° |
| 2026-05-06 06:43 | 46.18242 | -62.96955 | 36965 ft | 505 kts | 47° |
| 2026-05-06 06:44 | 46.22874 | -62.89349 | 36964 ft | 505 kts | 47° |
| 2026-05-06 06:44 | 46.27490 | -62.81747 | 36964 ft | 506 kts | 47° |
| 2026-05-06 06:45 | 46.32117 | -62.74110 | 36951 ft | 507 kts | 47° |
| 2026-05-06 06:45 | 46.36732 | -62.66465 | 36961 ft | 507 kts | 47° |
| 2026-05-06 06:46 | 46.41374 | -62.58759 | 36958 ft | 508 kts | 47° |
| 2026-05-06 06:46 | 46.45991 | -62.51068 | 36956 ft | 508 kts | 47° |
| 2026-05-06 06:47 | 46.50613 | -62.43350 | 36959 ft | 509 kts | 47° |
| 2026-05-06 06:47 | 46.55242 | -62.35600 | 36957 ft | 509 kts | 47° |
| 2026-05-06 06:48 | 46.59870 | -62.27831 | 36957 ft | 509 kts | 48° |
| 2026-05-06 06:48 | 46.64478 | -62.20070 | 36957 ft | 509 kts | 48° |
| 2026-05-06 06:49 | 46.69071 | -62.12312 | 36943 ft | 510 kts | 48° |
| 2026-05-06 06:49 | 46.73688 | -62.04491 | 36938 ft | 510 kts | 48° |
| 2026-05-06 06:50 | 46.78289 | -61.96674 | 36946 ft | 510 kts | 48° |
| 2026-05-06 06:50 | 46.82899 | -61.88823 | 36941 ft | 510 kts | 48° |
| 2026-05-06 06:51 | 46.87499 | -61.80962 | 36930 ft | 510 kts | 48° |
| 2026-05-06 06:51 | 46.92084 | -61.73105 | 36955 ft | 510 kts | 48° |
| 2026-05-06 06:52 | 46.96657 | -61.65248 | 36939 ft | 511 kts | 48° |
| 2026-05-06 06:52 | 47.01238 | -61.57357 | 36940 ft | 510 kts | 48° |
| 2026-05-06 06:53 | 47.05801 | -61.49469 | 36940 ft | 511 kts | 48° |
| 2026-05-06 06:53 | 47.10377 | -61.41538 | 36940 ft | 510 kts | 48° |
| 2026-05-06 06:54 | 47.14956 | -61.33577 | 36938 ft | 511 kts | 49° |
| 2026-05-06 06:54 | 47.19515 | -61.25631 | 36947 ft | 510 kts | 49° |
| 2026-05-06 06:55 | 47.24079 | -61.17650 | 36943 ft | 511 kts | 49° |
| 2026-05-06 06:55 | 47.28624 | -61.09680 | 36939 ft | 511 kts | 49° |
| 2026-05-06 06:56 | 47.33160 | -61.01703 | 36950 ft | 511 kts | 49° |
| 2026-05-06 06:56 | 47.37723 | -60.93652 | 36949 ft | 512 kts | 49° |
| 2026-05-06 06:57 | 47.42274 | -60.85598 | 36951 ft | 513 kts | 49° |
| 2026-05-06 06:57 | 47.46808 | -60.77552 | 36950 ft | 512 kts | 49° |
| 2026-05-06 06:58 | 47.51358 | -60.69452 | 36948 ft | 513 kts | 49° |
| 2026-05-06 06:58 | 47.55869 | -60.61401 | 36943 ft | 513 kts | 49° |
| 2026-05-06 06:59 | 47.60408 | -60.53273 | 36947 ft | 513 kts | 48° |
| 2026-05-06 06:59 | 47.64949 | -60.45118 | 36937 ft | 513 kts | 49° |
| 2026-05-06 07:00 | 47.69457 | -60.36997 | 36932 ft | 514 kts | 48° |
| 2026-05-06 07:00 | 47.74009 | -60.28775 | 36931 ft | 515 kts | 49° |
| 2026-05-06 07:01 | 47.78513 | -60.20614 | 36929 ft | 515 kts | 49° |
| 2026-05-06 07:01 | 47.83022 | -60.12416 | 36931 ft | 515 kts | 49° |
| 2026-05-06 07:02 | 47.87539 | -60.04179 | 36922 ft | 515 kts | 49° |
| 2026-05-06 07:02 | 47.92038 | -59.95950 | 36927 ft | 515 kts | 49° |
| 2026-05-06 07:03 | 47.96552 | -59.87671 | 36929 ft | 515 kts | 49° |
| 2026-05-06 07:03 | 48.01038 | -59.79417 | 36929 ft | 515 kts | 49° |
| 2026-05-06 07:04 | 48.05539 | -59.71110 | 36933 ft | 514 kts | 49° |
| 2026-05-06 07:04 | 48.10002 | -59.62849 | 36938 ft | 515 kts | 49° |
| 2026-05-06 07:05 | 48.14473 | -59.54543 | 36938 ft | 513 kts | 49° |
| 2026-05-06 07:05 | 48.18914 | -59.46272 | 36946 ft | 513 kts | 49° |
| 2026-05-06 07:06 | 48.23373 | -59.37938 | 36948 ft | 514 kts | 48° |
| 2026-05-06 07:06 | 48.27813 | -59.29621 | 36948 ft | 514 kts | 49° |
| 2026-05-06 07:07 | 48.32268 | -59.21246 | 36943 ft | 514 kts | 49° |
| 2026-05-06 07:07 | 48.36711 | -59.12862 | 36939 ft | 515 kts | 49° |
| 2026-05-06 07:08 | 48.41141 | -59.04487 | 36946 ft | 514 kts | 49° |
| 2026-05-06 07:08 | 48.45583 | -58.96053 | 36943 ft | 514 kts | 49° |
| 2026-05-06 07:09 | 48.49987 | -58.87670 | 36932 ft | 513 kts | 49° |
| 2026-05-06 07:09 | 48.54405 | -58.79236 | 36927 ft | 514 kts | 49° |
| 2026-05-06 07:10 | 48.58794 | -58.70827 | 36941 ft | 513 kts | 49° |
| 2026-05-06 07:10 | 48.63216 | -58.62334 | 36935 ft | 514 kts | 49° |
| 2026-05-06 07:11 | 48.67600 | -58.53878 | 36927 ft | 514 kts | 49° |
| 2026-05-06 07:11 | 48.71983 | -58.45401 | 36922 ft | 514 kts | 49° |
| 2026-05-06 07:12 | 48.76366 | -58.36896 | 36916 ft | 513 kts | 49° |
| 2026-05-06 07:12 | 48.80756 | -58.28358 | 36915 ft | 514 kts | 50° |
| 2026-05-06 07:13 | 48.85106 | -58.19864 | 36922 ft | 514 kts | 50° |
| 2026-05-06 07:13 | 48.89471 | -58.11315 | 36926 ft | 515 kts | 50° |
| 2026-05-06 07:14 | 48.93854 | -58.02705 | 36915 ft | 515 kts | 50° |
| 2026-05-06 07:14 | 48.98197 | -57.94144 | 36916 ft | 514 kts | 50° |
| 2026-05-06 07:15 | 49.02532 | -57.85567 | 36922 ft | 514 kts | 50° |
| 2026-05-06 07:15 | 49.06883 | -57.76932 | 36921 ft | 513 kts | 50° |
| 2026-05-06 07:16 | 49.11189 | -57.68365 | 36913 ft | 514 kts | 50° |
| 2026-05-06 07:16 | 49.15541 | -57.59673 | 36920 ft | 514 kts | 50° |
| 2026-05-06 07:17 | 49.19843 | -57.51055 | 36918 ft | 514 kts | 49° |
| 2026-05-06 07:17 | 49.24166 | -57.42372 | 36920 ft | 515 kts | 50° |
| 2026-05-06 07:18 | 49.28488 | -57.33654 | 36925 ft | 514 kts | 50° |
| 2026-05-06 07:18 | 49.32788 | -57.24955 | 36924 ft | 515 kts | 50° |
| 2026-05-06 07:19 | 49.37069 | -57.16263 | 36916 ft | 514 kts | 50° |
| 2026-05-06 07:19 | 49.41354 | -57.07541 | 36916 ft | 515 kts | 50° |
| 2026-05-06 07:20 | 49.45642 | -56.98788 | 36936 ft | 514 kts | 50° |
| 2026-05-06 07:20 | 49.49920 | -56.90017 | 36930 ft | 514 kts | 50° |
| 2026-05-06 07:21 | 49.54176 | -56.81265 | 36922 ft | 515 kts | 50° |
| 2026-05-06 07:21 | 49.58441 | -56.72461 | 36926 ft | 515 kts | 50° |
| 2026-05-06 07:22 | 49.62700 | -56.63644 | 36929 ft | 515 kts | 50° |
| 2026-05-06 07:22 | 49.66944 | -56.54835 | 36924 ft | 514 kts | 50° |
| 2026-05-06 07:23 | 49.71194 | -56.45978 | 36922 ft | 514 kts | 50° |
| 2026-05-06 07:23 | 49.75436 | -56.37106 | 36922 ft | 514 kts | 50° |
| 2026-05-06 07:24 | 49.79652 | -56.28268 | 36909 ft | 514 kts | 51° |
| 2026-05-06 07:24 | 49.83891 | -56.19346 | 36896 ft | 514 kts | 50° |
| 2026-05-06 07:25 | 49.88095 | -56.10466 | 36900 ft | 516 kts | 50° |
| 2026-05-06 07:25 | 49.92312 | -56.01527 | 36908 ft | 515 kts | 51° |
| 2026-05-06 07:26 | 49.96512 | -55.92596 | 36902 ft | 515 kts | 50° |
| 2026-05-06 07:26 | 50.00709 | -55.83640 | 36895 ft | 515 kts | 50° |
| 2026-05-06 07:27 | 50.04926 | -55.74614 | 36896 ft | 515 kts | 50° |
| 2026-05-06 07:27 | 50.09091 | -55.65671 | 36894 ft | 515 kts | 50° |
| 2026-05-06 07:28 | 50.13284 | -55.56632 | 36896 ft | 515 kts | 50° |
| 2026-05-06 07:28 | 50.19542 | -55.43082 | 36893 ft | 515 kts | 50° |
| 2026-05-06 07:29 | 50.23703 | -55.34035 | 36894 ft | 514 kts | 50° |
| 2026-05-06 07:29 | 50.27839 | -55.25010 | 36899 ft | 513 kts | 50° |
| 2026-05-06 07:30 | 50.31961 | -55.15993 | 36900 ft | 513 kts | 50° |
| 2026-05-06 07:30 | 50.36103 | -55.06894 | 36898 ft | 512 kts | 50° |
| 2026-05-06 07:31 | 50.40191 | -54.97890 | 36903 ft | 512 kts | 50° |
| 2026-05-06 07:31 | 50.44302 | -54.88799 | 36903 ft | 511 kts | 50° |
| 2026-05-06 07:32 | 50.48366 | -54.79776 | 36902 ft | 511 kts | 50° |
| 2026-05-06 07:32 | 50.52438 | -54.70708 | 36906 ft | 510 kts | 50° |
| 2026-05-06 07:33 | 50.56505 | -54.61624 | 36908 ft | 510 kts | 50° |
| 2026-05-06 07:33 | 50.60561 | -54.52528 | 36906 ft | 509 kts | 50° |
| 2026-05-06 07:34 | 50.64616 | -54.43399 | 36907 ft | 509 kts | 50° |
| 2026-05-06 07:34 | 50.68653 | -54.34288 | 36902 ft | 509 kts | 51° |
| 2026-05-06 07:35 | 50.72684 | -54.25159 | 36907 ft | 510 kts | 51° |
| 2026-05-06 07:35 | 50.76709 | -54.16005 | 36909 ft | 510 kts | 51° |
| 2026-05-06 07:36 | 50.80746 | -54.06792 | 36904 ft | 510 kts | 50° |
| 2026-05-06 07:36 | 50.84744 | -53.97638 | 36905 ft | 509 kts | 51° |
| 2026-05-06 07:37 | 50.88752 | -53.88423 | 36907 ft | 510 kts | 51° |
| 2026-05-06 07:37 | 50.92738 | -53.79231 | 36910 ft | 509 kts | 50° |
| 2026-05-06 07:38 | 50.96738 | -53.69979 | 36908 ft | 509 kts | 51° |
| 2026-05-06 07:38 | 51.00720 | -53.60727 | 36914 ft | 508 kts | 51° |
| 2026-05-06 07:39 | 51.04658 | -53.51542 | 36911 ft | 508 kts | 50° |
| 2026-05-06 07:39 | 51.08614 | -53.42282 | 36920 ft | 507 kts | 50° |
| 2026-05-06 07:40 | 51.12550 | -53.33038 | 36913 ft | 506 kts | 51° |
| 2026-05-06 07:40 | 51.16316 | -53.23601 | 36924 ft | 509 kts | 56° |
| 2026-05-06 07:41 | 51.19442 | -53.13495 | 36931 ft | 513 kts | 62° |
| 2026-05-06 07:41 | 51.22281 | -53.03086 | 36931 ft | 513 kts | 63° |
| 2026-05-06 07:42 | 51.25106 | -52.92646 | 36934 ft | 512 kts | 62° |
| 2026-05-06 07:42 | 51.27926 | -52.82256 | 36940 ft | 513 kts | 62° |
| 2026-05-06 07:43 | 51.30746 | -52.71835 | 36943 ft | 512 kts | 62° |
| 2026-05-06 07:43 | 51.33543 | -52.61467 | 36938 ft | 512 kts | 62° |
| 2026-05-06 07:44 | 51.36346 | -52.51038 | 36942 ft | 512 kts | 62° |
| 2026-05-06 07:44 | 51.39150 | -52.40554 | 36941 ft | 512 kts | 62° |
| 2026-05-06 07:45 | 51.41914 | -52.30168 | 36941 ft | 512 kts | 63° |
| 2026-05-06 07:45 | 51.44684 | -52.19711 | 36954 ft | 512 kts | 63° |
| 2026-05-06 07:46 | 51.47447 | -52.09230 | 36949 ft | 513 kts | 63° |
| 2026-05-06 07:46 | 51.50210 | -51.98699 | 36944 ft | 511 kts | 63° |
| 2026-05-06 07:47 | 51.52948 | -51.88224 | 36954 ft | 511 kts | 63° |
| 2026-05-06 07:47 | 51.55682 | -51.77713 | 36960 ft | 512 kts | 63° |
| 2026-05-06 07:48 | 51.58391 | -51.67243 | 36957 ft | 511 kts | 63° |
| 2026-05-06 07:48 | 51.61096 | -51.56746 | 36968 ft | 511 kts | 62° |
| 2026-05-06 07:49 | 51.63802 | -51.46202 | 36958 ft | 511 kts | 63° |
| 2026-05-06 07:49 | 51.66488 | -51.35682 | 36965 ft | 510 kts | 63° |
| 2026-05-06 07:50 | 51.69167 | -51.25136 | 36964 ft | 510 kts | 63° |
| 2026-05-06 07:50 | 51.71839 | -51.14568 | 36971 ft | 510 kts | 63° |
| 2026-05-06 07:51 | 51.74479 | -51.04079 | 36960 ft | 509 kts | 63° |
| 2026-05-06 07:51 | 51.77131 | -50.93492 | 36960 ft | 510 kts | 63° |
| 2026-05-06 07:52 | 51.79768 | -50.82917 | 36975 ft | 509 kts | 63° |
| 2026-05-06 07:52 | 51.82388 | -50.72353 | 36968 ft | 509 kts | 63° |
| 2026-05-06 07:53 | 51.85004 | -50.61757 | 36965 ft | 508 kts | 63° |
| 2026-05-06 07:53 | 51.87604 | -50.51173 | 36983 ft | 507 kts | 63° |
| 2026-05-06 07:54 | 51.90181 | -50.40641 | 36969 ft | 508 kts | 63° |
| 2026-05-06 07:54 | 51.92760 | -50.30050 | 36983 ft | 509 kts | 64° |
| 2026-05-06 07:55 | 51.95336 | -50.19398 | 36970 ft | 509 kts | 64° |
| 2026-05-06 07:55 | 51.97892 | -50.08780 | 36969 ft | 508 kts | 64° |
| 2026-05-06 07:56 | 52.00237 | -49.97967 | 36954 ft | 511 kts | 69° |
| 2026-05-06 07:56 | 52.01957 | -49.86794 | 36989 ft | 513 kts | 72° |
| 2026-05-06 07:57 | 52.03545 | -49.75564 | 36997 ft | 512 kts | 72° |
| 2026-05-06 07:57 | 52.05135 | -49.64282 | 36989 ft | 512 kts | 72° |
| 2026-05-06 07:58 | 52.06715 | -49.53076 | 37006 ft | 511 kts | 72° |
| 2026-05-06 07:58 | 52.08285 | -49.41873 | 37008 ft | 511 kts | 72° |
| 2026-05-06 07:59 | 52.09856 | -49.30612 | 37008 ft | 513 kts | 73° |
| 2026-05-06 07:59 | 52.11417 | -49.19318 | 37013 ft | 513 kts | 73° |
| 2026-05-06 08:00 | 52.12963 | -49.08052 | 37004 ft | 513 kts | 73° |
| 2026-05-06 08:00 | 52.14492 | -48.96812 | 36993 ft | 513 kts | 73° |
| 2026-05-06 08:01 | 52.16013 | -48.85550 | 36999 ft | 512 kts | 73° |
| 2026-05-06 08:01 | 52.17529 | -48.74250 | 36996 ft | 512 kts | 73° |
| 2026-05-06 08:02 | 52.19031 | -48.62946 | 36986 ft | 511 kts | 73° |
| 2026-05-06 08:02 | 52.20521 | -48.51685 | 37021 ft | 511 kts | 73° |
| 2026-05-06 08:03 | 52.21993 | -48.40425 | 37020 ft | 510 kts | 73° |
| 2026-05-06 08:03 | 52.23462 | -48.29111 | 37009 ft | 510 kts | 73° |
| 2026-05-06 08:04 | 52.24911 | -48.17887 | 37016 ft | 511 kts | 74° |
| 2026-05-06 08:04 | 52.26360 | -48.06540 | 37031 ft | 512 kts | 74° |
| 2026-05-06 08:05 | 52.27787 | -47.95260 | 37032 ft | 510 kts | 74° |
| 2026-05-06 08:05 | 52.29205 | -47.83985 | 37035 ft | 510 kts | 74° |
| 2026-05-06 08:06 | 52.30620 | -47.72657 | 37044 ft | 510 kts | 74° |
| 2026-05-06 08:06 | 52.32022 | -47.61336 | 37040 ft | 510 kts | 74° |
| 2026-05-06 08:07 | 52.33410 | -47.49988 | 37035 ft | 510 kts | 74° |
| 2026-05-06 08:07 | 52.34780 | -47.38737 | 37041 ft | 509 kts | 74° |
| 2026-05-06 08:08 | 52.36150 | -47.27375 | 37032 ft | 510 kts | 75° |
| 2026-05-06 08:08 | 52.37506 | -47.16039 | 37039 ft | 511 kts | 75° |
| 2026-05-06 08:09 | 52.38850 | -47.04683 | 37042 ft | 511 kts | 75° |
| 2026-05-06 08:09 | 52.40177 | -46.93372 | 37036 ft | 510 kts | 75° |
| 2026-05-06 08:10 | 52.41507 | -46.81961 | 37047 ft | 511 kts | 75° |
| 2026-05-06 08:10 | 52.42161 | -46.76297 | 37215 ft | 510 kts | 75° |
| 2026-05-06 08:10 | 52.42818 | -46.70591 | 37165 ft | 509 kts | 75° |
| 2026-05-06 08:11 | 52.44115 | -46.59277 | 37078 ft | 508 kts | 75° |
| 2026-05-06 08:11 | 52.45398 | -46.47942 | 37055 ft | 508 kts | 75° |
| 2026-05-06 08:12 | 52.46671 | -46.36597 | 37043 ft | 508 kts | 74° |
| 2026-05-06 08:12 | 52.47942 | -46.25207 | 37045 ft | 509 kts | 75° |
| 2026-05-06 08:13 | 52.49194 | -46.13865 | 37044 ft | 508 kts | 75° |
| 2026-05-06 08:13 | 52.50433 | -46.02520 | 37048 ft | 508 kts | 75° |
| 2026-05-06 08:14 | 52.51660 | -45.91173 | 37043 ft | 508 kts | 75° |
| 2026-05-06 08:14 | 52.52885 | -45.79769 | 37045 ft | 508 kts | 75° |
| 2026-05-06 08:15 | 52.54100 | -45.68347 | 37037 ft | 507 kts | 75° |
| 2026-05-06 08:15 | 52.55297 | -45.56981 | 37042 ft | 508 kts | 76° |
| 2026-05-06 08:16 | 52.56481 | -45.45619 | 37034 ft | 508 kts | 76° |
| 2026-05-06 08:16 | 52.57650 | -45.34260 | 37043 ft | 506 kts | 77° |
| 2026-05-06 08:17 | 52.58815 | -45.22879 | 37057 ft | 506 kts | 77° |
| 2026-05-06 08:17 | 52.59964 | -45.11509 | 37036 ft | 506 kts | 77° |
| 2026-05-06 08:18 | 52.61108 | -45.00096 | 37043 ft | 507 kts | 77° |
| 2026-05-06 08:18 | 52.62237 | -44.88710 | 37056 ft | 507 kts | 77° |
| 2026-05-06 08:19 | 52.63356 | -44.77299 | 37063 ft | 506 kts | 77° |
| 2026-05-06 08:19 | 52.64455 | -44.65990 | 37055 ft | 505 kts | 77° |
| 2026-05-06 08:20 | 52.65550 | -44.54604 | 37065 ft | 505 kts | 77° |
| 2026-05-06 08:20 | 52.66639 | -44.43155 | 37049 ft | 506 kts | 77° |
| 2026-05-06 08:21 | 52.67708 | -44.31795 | 37052 ft | 505 kts | 78° |
| 2026-05-06 08:21 | 52.68769 | -44.20398 | 37051 ft | 506 kts | 78° |
| 2026-05-06 08:22 | 52.69820 | -44.08996 | 37056 ft | 506 kts | 78° |
| 2026-05-06 08:22 | 52.70859 | -43.97577 | 37055 ft | 505 kts | 78° |
| 2026-05-06 08:23 | 52.71886 | -43.86179 | 37050 ft | 505 kts | 78° |
| 2026-05-06 08:23 | 52.72903 | -43.74783 | 37065 ft | 505 kts | 78° |
| 2026-05-06 08:24 | 52.73907 | -43.63370 | 37056 ft | 504 kts | 78° |
| 2026-05-06 08:24 | 52.74894 | -43.52011 | 37059 ft | 504 kts | 78° |
| 2026-05-06 08:25 | 52.75880 | -43.40575 | 37046 ft | 504 kts | 78° |
| 2026-05-06 08:25 | 52.76856 | -43.29134 | 37058 ft | 504 kts | 79° |
| 2026-05-06 08:26 | 52.77817 | -43.17704 | 37059 ft | 506 kts | 79° |
| 2026-05-06 08:26 | 52.78762 | -43.06333 | 37056 ft | 505 kts | 79° |
| 2026-05-06 08:27 | 52.79705 | -42.94846 | 37058 ft | 505 kts | 79° |
| 2026-05-06 08:27 | 52.80632 | -42.83411 | 37066 ft | 505 kts | 79° |
| 2026-05-06 08:28 | 52.81550 | -42.71944 | 37061 ft | 505 kts | 80° |
| 2026-05-06 08:28 | 52.82451 | -42.60549 | 37063 ft | 504 kts | 79° |
| 2026-05-06 08:29 | 52.83345 | -42.49111 | 37065 ft | 504 kts | 80° |
| 2026-05-06 08:29 | 52.84230 | -42.37640 | 37067 ft | 503 kts | 80° |
| 2026-05-06 08:30 | 52.85099 | -42.26253 | 37063 ft | 503 kts | 81° |
| 2026-05-06 08:30 | 52.85956 | -42.14827 | 37063 ft | 503 kts | 81° |
| 2026-05-06 08:31 | 52.86807 | -42.03346 | 37064 ft | 504 kts | 81° |
| 2026-05-06 08:31 | 52.87644 | -41.91901 | 37067 ft | 504 kts | 81° |
| 2026-05-06 08:32 | 52.88472 | -41.80445 | 37068 ft | 503 kts | 81° |
| 2026-05-06 08:32 | 52.89286 | -41.68990 | 37060 ft | 503 kts | 81° |
| 2026-05-06 08:33 | 52.90092 | -41.57525 | 37068 ft | 503 kts | 81° |
| 2026-05-06 08:33 | 52.90884 | -41.46072 | 37074 ft | 502 kts | 81° |
| 2026-05-06 08:34 | 52.92050 | -41.28947 | 37069 ft | 501 kts | 82° |
| 2026-05-06 08:35 | 52.92812 | -41.17522 | 37071 ft | 501 kts | 82° |
| 2026-05-06 08:35 | 52.93563 | -41.06084 | 37077 ft | 502 kts | 82° |
| 2026-05-06 08:36 | 52.94307 | -40.94606 | 37082 ft | 502 kts | 82° |
| 2026-05-06 08:36 | 52.95036 | -40.83186 | 37088 ft | 502 kts | 82° |
| 2026-05-06 08:37 | 52.95752 | -40.71759 | 37090 ft | 502 kts | 82° |
| 2026-05-06 08:37 | 52.96460 | -40.60310 | 37093 ft | 501 kts | 82° |
| 2026-05-06 08:38 | 52.97156 | -40.48870 | 37098 ft | 501 kts | 82° |
| 2026-05-06 08:38 | 52.97844 | -40.37402 | 37099 ft | 500 kts | 82° |
| 2026-05-06 08:39 | 52.98515 | -40.25982 | 37102 ft | 500 kts | 83° |
| 2026-05-06 08:39 | 52.99175 | -40.14537 | 37103 ft | 499 kts | 83° |
| 2026-05-06 08:40 | 52.99870 | -40.03177 | 37106 ft | 499 kts | 81° |
| 2026-05-06 08:40 | 53.01138 | -39.91928 | 37099 ft | 497 kts | 75° |
| 2026-05-06 08:41 | 53.02743 | -39.80761 | 37099 ft | 498 kts | 74° |
| 2026-05-06 08:41 | 53.04348 | -39.69636 | 37100 ft | 498 kts | 75° |
| 2026-05-06 08:42 | 53.05936 | -39.58463 | 37104 ft | 498 kts | 75° |
| 2026-05-06 08:42 | 53.07498 | -39.47370 | 37097 ft | 497 kts | 75° |
| 2026-05-06 08:43 | 53.09062 | -39.36169 | 37100 ft | 496 kts | 75° |
| 2026-05-06 08:43 | 53.10603 | -39.25040 | 37101 ft | 496 kts | 76° |
| 2026-05-06 08:44 | 53.12126 | -39.13959 | 37100 ft | 496 kts | 76° |
| 2026-05-06 08:44 | 53.13648 | -39.02805 | 37100 ft | 497 kts | 76° |
| 2026-05-06 08:45 | 53.15168 | -38.91585 | 37101 ft | 497 kts | 76° |
| 2026-05-06 08:45 | 53.16673 | -38.80379 | 37099 ft | 497 kts | 76° |
| 2026-05-06 08:46 | 53.18156 | -38.69255 | 37102 ft | 497 kts | 76° |
| 2026-05-06 08:46 | 53.19636 | -38.58070 | 37099 ft | 496 kts | 76° |
| 2026-05-06 08:47 | 53.21105 | -38.46880 | 37104 ft | 496 kts | 76° |
| 2026-05-06 08:47 | 53.22565 | -38.35667 | 37098 ft | 495 kts | 76° |
| 2026-05-06 08:48 | 53.24012 | -38.24475 | 37101 ft | 495 kts | 77° |
| 2026-05-06 08:48 | 53.25445 | -38.13289 | 37103 ft | 495 kts | 77° |
| 2026-05-06 08:49 | 53.26870 | -38.02084 | 37099 ft | 495 kts | 77° |
| 2026-05-06 08:49 | 53.28279 | -37.90910 | 37105 ft | 495 kts | 77° |
| 2026-05-06 08:50 | 53.29687 | -37.79666 | 37105 ft | 495 kts | 77° |
| 2026-05-06 08:50 | 53.31072 | -37.68507 | 37105 ft | 495 kts | 77° |
| 2026-05-06 08:51 | 53.32461 | -37.57233 | 37104 ft | 495 kts | 77° |
| 2026-05-06 08:51 | 53.33830 | -37.46022 | 37106 ft | 495 kts | 77° |
| 2026-05-06 08:52 | 53.35190 | -37.34787 | 37106 ft | 494 kts | 78° |
| 2026-05-06 08:52 | 53.36535 | -37.23598 | 37104 ft | 494 kts | 78° |
| 2026-05-06 08:53 | 53.37871 | -37.12374 | 37104 ft | 494 kts | 78° |
| 2026-05-06 08:53 | 53.39204 | -37.01085 | 37106 ft | 494 kts | 78° |
| 2026-05-06 08:54 | 53.40516 | -36.89881 | 37105 ft | 495 kts | 78° |
| 2026-05-06 08:54 | 53.41827 | -36.78580 | 37105 ft | 495 kts | 78° |
| 2026-05-06 08:55 | 53.43118 | -36.67355 | 37105 ft | 495 kts | 78° |
| 2026-05-06 08:55 | 53.44408 | -36.56041 | 37105 ft | 494 kts | 78° |
| 2026-05-06 08:56 | 53.45675 | -36.44821 | 37105 ft | 494 kts | 78° |
| 2026-05-06 08:56 | 53.46942 | -36.33503 | 37105 ft | 494 kts | 79° |
| 2026-05-06 08:57 | 53.48189 | -36.22268 | 37106 ft | 494 kts | 79° |
| 2026-05-06 08:57 | 53.49429 | -36.10988 | 37105 ft | 494 kts | 79° |
| 2026-05-06 08:58 | 53.50660 | -35.99709 | 37105 ft | 494 kts | 79° |
| 2026-05-06 08:58 | 53.51885 | -35.88369 | 37109 ft | 494 kts | 79° |
| 2026-05-06 08:59 | 53.53088 | -35.77117 | 37106 ft | 494 kts | 79° |
| 2026-05-06 08:59 | 53.54288 | -35.65788 | 37110 ft | 493 kts | 79° |
| 2026-05-06 09:00 | 53.55476 | -35.54470 | 37116 ft | 493 kts | 79° |
| 2026-05-06 09:00 | 53.56647 | -35.43205 | 37113 ft | 492 kts | 79° |
| 2026-05-06 09:01 | 53.57811 | -35.31904 | 37105 ft | 492 kts | 80° |
| 2026-05-06 09:01 | 53.58966 | -35.20570 | 37110 ft | 492 kts | 80° |
| 2026-05-06 09:02 | 53.60104 | -35.09304 | 37116 ft | 491 kts | 80° |
| 2026-05-06 09:02 | 53.61232 | -34.98020 | 37111 ft | 491 kts | 80° |
| 2026-05-06 09:03 | 53.62353 | -34.86690 | 37109 ft | 492 kts | 80° |
| 2026-05-06 09:03 | 53.63457 | -34.75428 | 37113 ft | 492 kts | 81° |
| 2026-05-06 09:04 | 53.64559 | -34.64061 | 37111 ft | 492 kts | 81° |
| 2026-05-06 09:04 | 53.65641 | -34.52792 | 37115 ft | 491 kts | 81° |
| 2026-05-06 09:05 | 53.66719 | -34.41441 | 37108 ft | 491 kts | 81° |
| 2026-05-06 09:05 | 53.67780 | -34.30156 | 37110 ft | 491 kts | 82° |
| 2026-05-06 09:06 | 53.68834 | -34.18816 | 37114 ft | 490 kts | 82° |
| 2026-05-06 09:06 | 53.69869 | -34.07565 | 37116 ft | 490 kts | 82° |
| 2026-05-06 09:07 | 53.70902 | -33.96217 | 37110 ft | 490 kts | 82° |
| 2026-05-06 09:07 | 53.71920 | -33.84916 | 37098 ft | 489 kts | 82° |
| 2026-05-06 09:08 | 53.72925 | -33.73623 | 37101 ft | 489 kts | 82° |
| 2026-05-06 09:08 | 53.73916 | -33.62361 | 37094 ft | 489 kts | 82° |
| 2026-05-06 09:09 | 53.74904 | -33.51028 | 37093 ft | 489 kts | 82° |
| 2026-05-06 09:09 | 53.75875 | -33.39759 | 37090 ft | 488 kts | 82° |
| 2026-05-06 09:10 | 53.76840 | -33.28420 | 37087 ft | 488 kts | 82° |
| 2026-05-06 09:10 | 53.77791 | -33.17128 | 37084 ft | 488 kts | 83° |
| 2026-05-06 09:11 | 53.78732 | -33.05824 | 37076 ft | 488 kts | 83° |
| 2026-05-06 09:11 | 53.79666 | -32.94468 | 37074 ft | 489 kts | 83° |
| 2026-05-06 09:12 | 53.80581 | -32.83182 | 37071 ft | 489 kts | 83° |
| 2026-05-06 09:12 | 53.81492 | -32.71817 | 37076 ft | 489 kts | 83° |
| 2026-05-06 09:13 | 53.82388 | -32.60516 | 37074 ft | 488 kts | 83° |
| 2026-05-06 09:13 | 53.83280 | -32.49135 | 37076 ft | 487 kts | 83° |
| 2026-05-06 09:14 | 53.84154 | -32.37828 | 37075 ft | 487 kts | 83° |
| 2026-05-06 09:14 | 53.85021 | -32.26483 | 37071 ft | 488 kts | 84° |
| 2026-05-06 09:15 | 53.85873 | -32.15175 | 37069 ft | 488 kts | 84° |
| 2026-05-06 09:15 | 53.86716 | -32.03828 | 37075 ft | 488 kts | 83° |
| 2026-05-06 09:16 | 53.87546 | -31.92527 | 37071 ft | 488 kts | 84° |
| 2026-05-06 09:16 | 53.88372 | -31.81144 | 37080 ft | 489 kts | 84° |
| 2026-05-06 09:17 | 53.89184 | -31.69783 | 37067 ft | 488 kts | 84° |
| 2026-05-06 09:17 | 53.89986 | -31.58398 | 37071 ft | 487 kts | 84° |
| 2026-05-06 09:18 | 53.90773 | -31.47074 | 37062 ft | 486 kts | 84° |
| 2026-05-06 09:18 | 53.91549 | -31.35764 | 37061 ft | 486 kts | 84° |
| 2026-05-06 09:19 | 53.92316 | -31.24424 | 37059 ft | 486 kts | 85° |
| 2026-05-06 09:19 | 53.93074 | -31.13038 | 37059 ft | 486 kts | 84° |
| 2026-05-06 09:20 | 53.93816 | -31.01754 | 37057 ft | 486 kts | 85° |
| 2026-05-06 09:20 | 53.94552 | -30.90392 | 37055 ft | 486 kts | 85° |
| 2026-05-06 09:21 | 53.95271 | -30.79076 | 37056 ft | 485 kts | 85° |
| 2026-05-06 09:21 | 53.95986 | -30.67687 | 37056 ft | 484 kts | 85° |
| 2026-05-06 09:22 | 53.96681 | -30.56441 | 37056 ft | 484 kts | 85° |
| 2026-05-06 09:22 | 53.97371 | -30.45086 | 37058 ft | 484 kts | 85° |
| 2026-05-06 09:23 | 53.98048 | -30.33771 | 37055 ft | 484 kts | 85° |
| 2026-05-06 09:23 | 53.98715 | -30.22446 | 37058 ft | 484 kts | 86° |
| 2026-05-06 09:24 | 53.99369 | -30.11098 | 37054 ft | 484 kts | 86° |
| 2026-05-06 09:24 | 54.00175 | -29.99863 | 37052 ft | 484 kts | 81° |
| 2026-05-06 09:25 | 54.01598 | -29.88726 | 37053 ft | 484 kts | 77° |
| 2026-05-06 09:25 | 54.03188 | -29.77690 | 37058 ft | 483 kts | 77° |
| 2026-05-06 09:26 | 54.04770 | -29.66632 | 37060 ft | 484 kts | 77° |
| 2026-05-06 09:26 | 54.06344 | -29.55490 | 37061 ft | 484 kts | 77° |
| 2026-05-06 09:27 | 54.07894 | -29.44431 | 37063 ft | 484 kts | 77° |
| 2026-05-06 09:27 | 54.09442 | -29.33311 | 37066 ft | 484 kts | 78° |
| 2026-05-06 09:28 | 54.10976 | -29.22195 | 37070 ft | 484 kts | 78° |
| 2026-05-06 09:28 | 54.12501 | -29.11048 | 37070 ft | 484 kts | 78° |
| 2026-05-06 09:29 | 54.14009 | -28.99944 | 37081 ft | 484 kts | 78° |
| 2026-05-06 09:29 | 54.15506 | -28.88831 | 37084 ft | 483 kts | 78° |
| 2026-05-06 09:30 | 54.16994 | -28.77713 | 37082 ft | 483 kts | 78° |
| 2026-05-06 09:30 | 54.17741 | -28.72104 | 36876 ft | 483 kts | 78° |
| 2026-05-06 09:30 | 54.18475 | -28.66567 | 36988 ft | 484 kts | 78° |
| 2026-05-06 09:31 | 54.19947 | -28.55395 | 37060 ft | 485 kts | 78° |
| 2026-05-06 09:31 | 54.21408 | -28.44228 | 37081 ft | 485 kts | 78° |
| 2026-05-06 09:32 | 54.22866 | -28.32994 | 37080 ft | 484 kts | 79° |
| 2026-05-06 09:32 | 54.24304 | -28.21831 | 37100 ft | 484 kts | 79° |
| 2026-05-06 09:33 | 54.25730 | -28.10664 | 37090 ft | 484 kts | 79° |
| 2026-05-06 09:33 | 54.27153 | -27.99438 | 37095 ft | 484 kts | 79° |
| 2026-05-06 09:34 | 54.28556 | -27.88269 | 37100 ft | 483 kts | 79° |
| 2026-05-06 09:34 | 54.29947 | -27.77120 | 37105 ft | 483 kts | 79° |
| 2026-05-06 09:35 | 54.31335 | -27.65899 | 37102 ft | 483 kts | 79° |
| 2026-05-06 09:35 | 54.32711 | -27.54683 | 37088 ft | 483 kts | 79° |
| 2026-05-06 09:36 | 54.34074 | -27.43481 | 37108 ft | 483 kts | 79° |
| 2026-05-06 09:36 | 54.35426 | -27.32275 | 37095 ft | 482 kts | 80° |
| 2026-05-06 09:37 | 54.36770 | -27.21049 | 37104 ft | 482 kts | 80° |
| 2026-05-06 09:37 | 54.38099 | -27.09845 | 37105 ft | 482 kts | 80° |
| 2026-05-06 09:38 | 54.39422 | -26.98595 | 37099 ft | 482 kts | 80° |
| 2026-05-06 09:38 | 54.40731 | -26.87361 | 37095 ft | 483 kts | 80° |
| 2026-05-06 09:39 | 54.42035 | -26.76093 | 37088 ft | 483 kts | 80° |
| 2026-05-06 09:39 | 54.43322 | -26.64861 | 37096 ft | 484 kts | 79° |
| 2026-05-06 09:40 | 54.44611 | -26.53528 | 37100 ft | 483 kts | 79° |
| 2026-05-06 09:40 | 54.46510 | -26.36621 | 37097 ft | 483 kts | 79° |
| 2026-05-06 09:41 | 54.47769 | -26.25304 | 37098 ft | 483 kts | 80° |
| 2026-05-06 09:41 | 54.49010 | -26.14027 | 37095 ft | 483 kts | 80° |
| 2026-05-06 09:42 | 54.50243 | -26.02734 | 37097 ft | 483 kts | 80° |
| 2026-05-06 09:42 | 54.51467 | -25.91408 | 37099 ft | 483 kts | 80° |
| 2026-05-06 09:43 | 54.52681 | -25.80070 | 37097 ft | 484 kts | 80° |
| 2026-05-06 09:43 | 54.53881 | -25.68773 | 37104 ft | 484 kts | 80° |
| 2026-05-06 09:44 | 54.55080 | -25.57368 | 37090 ft | 485 kts | 80° |
| 2026-05-06 09:44 | 54.56266 | -25.45973 | 37089 ft | 485 kts | 80° |
| 2026-05-06 09:45 | 54.57438 | -25.34622 | 37095 ft | 485 kts | 81° |
| 2026-05-06 09:45 | 54.58603 | -25.23212 | 37091 ft | 485 kts | 81° |
| 2026-05-06 09:46 | 54.59755 | -25.11831 | 37088 ft | 485 kts | 81° |
| 2026-05-06 09:46 | 54.60899 | -25.00392 | 37084 ft | 485 kts | 81° |
| 2026-05-06 09:47 | 54.62030 | -24.88988 | 37076 ft | 486 kts | 80° |
| 2026-05-06 09:47 | 54.63159 | -24.77487 | 37072 ft | 487 kts | 80° |
| 2026-05-06 09:48 | 54.64274 | -24.66011 | 37074 ft | 487 kts | 80° |
| 2026-05-06 09:48 | 54.65374 | -24.54582 | 37065 ft | 487 kts | 80° |
| 2026-05-06 09:49 | 54.66467 | -24.43095 | 37065 ft | 487 kts | 80° |
| 2026-05-06 09:49 | 54.67550 | -24.31592 | 37063 ft | 488 kts | 81° |
| 2026-05-06 09:50 | 54.68629 | -24.20012 | 37058 ft | 488 kts | 81° |
| 2026-05-06 09:50 | 54.69692 | -24.08474 | 37055 ft | 488 kts | 81° |
| 2026-05-06 09:51 | 54.70742 | -23.96960 | 37054 ft | 489 kts | 81° |
| 2026-05-06 09:51 | 54.71788 | -23.85363 | 37053 ft | 489 kts | 81° |
| 2026-05-06 09:52 | 54.72821 | -23.73784 | 37049 ft | 489 kts | 81° |
| 2026-05-06 09:52 | 54.73839 | -23.62228 | 37053 ft | 489 kts | 81° |
| 2026-05-06 09:53 | 54.74849 | -23.50649 | 37054 ft | 490 kts | 81° |
| 2026-05-06 09:53 | 54.75851 | -23.39018 | 37055 ft | 490 kts | 80° |
| 2026-05-06 09:54 | 54.76840 | -23.27407 | 37059 ft | 490 kts | 81° |
| 2026-05-06 09:54 | 54.77820 | -23.15765 | 37055 ft | 490 kts | 81° |
| 2026-05-06 09:55 | 54.78789 | -23.04109 | 37047 ft | 490 kts | 81° |
| 2026-05-06 09:55 | 54.79749 | -22.92444 | 37053 ft | 490 kts | 81° |
| 2026-05-06 09:56 | 54.80687 | -22.80889 | 37056 ft | 490 kts | 81° |
| 2026-05-06 09:56 | 54.81627 | -22.69184 | 37053 ft | 491 kts | 81° |
| 2026-05-06 09:57 | 54.82550 | -22.57519 | 37041 ft | 491 kts | 81° |
| 2026-05-06 09:57 | 54.83466 | -22.45809 | 37044 ft | 492 kts | 81° |
| 2026-05-06 09:58 | 54.84373 | -22.34057 | 37045 ft | 492 kts | 82° |
| 2026-05-06 09:58 | 54.85267 | -22.22342 | 37043 ft | 492 kts | 81° |
| 2026-05-06 09:59 | 54.86146 | -22.10649 | 37041 ft | 492 kts | 81° |
| 2026-05-06 09:59 | 54.87017 | -21.98914 | 37042 ft | 493 kts | 81° |
| 2026-05-06 10:00 | 54.87880 | -21.87112 | 37044 ft | 493 kts | 81° |
| 2026-05-06 10:00 | 54.88727 | -21.75392 | 37041 ft | 493 kts | 81° |
| 2026-05-06 10:01 | 54.89569 | -21.63571 | 37042 ft | 493 kts | 81° |
| 2026-05-06 10:01 | 54.90393 | -21.51829 | 37038 ft | 494 kts | 81° |
| 2026-05-06 10:02 | 54.91211 | -21.40028 | 37032 ft | 494 kts | 81° |
| 2026-05-06 10:02 | 54.92020 | -21.28174 | 37031 ft | 495 kts | 82° |
| 2026-05-06 10:03 | 54.92812 | -21.16389 | 37024 ft | 495 kts | 81° |
| 2026-05-06 10:03 | 54.93594 | -21.04575 | 37021 ft | 495 kts | 81° |
| 2026-05-06 10:04 | 54.94366 | -20.92749 | 37025 ft | 495 kts | 81° |
| 2026-05-06 10:04 | 54.95128 | -20.80904 | 37014 ft | 494 kts | 81° |
| 2026-05-06 10:05 | 54.95880 | -20.69001 | 37019 ft | 496 kts | 81° |
| 2026-05-06 10:05 | 54.96617 | -20.57154 | 37018 ft | 496 kts | 81° |
| 2026-05-06 10:06 | 54.97346 | -20.45250 | 37016 ft | 496 kts | 81° |
| 2026-05-06 10:06 | 54.98060 | -20.33388 | 37005 ft | 497 kts | 82° |
| 2026-05-06 10:07 | 54.98764 | -20.21492 | 37012 ft | 497 kts | 82° |
| 2026-05-06 10:07 | 54.99458 | -20.09528 | 37005 ft | 497 kts | 82° |
| 2026-05-06 10:08 | 55.00057 | -19.97576 | 36999 ft | 498 kts | 85° |
| 2026-05-06 10:08 | 55.00314 | -19.85629 | 36997 ft | 499 kts | 85° |
| 2026-05-06 10:09 | 55.00533 | -19.73543 | 36999 ft | 499 kts | 85° |
| 2026-05-06 10:09 | 55.00742 | -19.61506 | 37011 ft | 500 kts | 85° |
| 2026-05-06 10:10 | 55.00943 | -19.49526 | 37009 ft | 499 kts | 85° |
| 2026-05-06 10:10 | 55.01134 | -19.37491 | 37005 ft | 499 kts | 85° |
| 2026-05-06 10:11 | 55.01314 | -19.25423 | 36998 ft | 500 kts | 86° |
| 2026-05-06 10:11 | 55.01481 | -19.13351 | 36994 ft | 500 kts | 86° |
| 2026-05-06 10:12 | 55.01636 | -19.01297 | 36999 ft | 501 kts | 86° |
| 2026-05-06 10:12 | 55.01778 | -18.89278 | 36998 ft | 501 kts | 86° |
| 2026-05-06 10:13 | 55.01913 | -18.77203 | 37005 ft | 501 kts | 86° |
| 2026-05-06 10:13 | 55.02033 | -18.65084 | 37003 ft | 501 kts | 86° |
| 2026-05-06 10:14 | 55.02140 | -18.52995 | 37012 ft | 500 kts | 86° |
| 2026-05-06 10:14 | 55.02236 | -18.40920 | 37013 ft | 501 kts | 86° |
| 2026-05-06 10:15 | 55.02320 | -18.28853 | 37010 ft | 501 kts | 86° |
| 2026-05-06 10:15 | 55.02392 | -18.16797 | 37019 ft | 500 kts | 86° |
| 2026-05-06 10:16 | 55.02452 | -18.04748 | 37014 ft | 500 kts | 86° |
| 2026-05-06 10:16 | 55.02502 | -17.92649 | 37018 ft | 501 kts | 86° |
| 2026-05-06 10:17 | 55.02538 | -17.80589 | 37018 ft | 501 kts | 86° |
| 2026-05-06 10:17 | 55.02562 | -17.68476 | 37020 ft | 501 kts | 86° |
| 2026-05-06 10:18 | 55.02575 | -17.56412 | 37014 ft | 501 kts | 86° |
| 2026-05-06 10:18 | 55.02576 | -17.44252 | 37017 ft | 501 kts | 86° |
| 2026-05-06 10:19 | 55.02564 | -17.32203 | 37026 ft | 501 kts | 87° |
| 2026-05-06 10:19 | 55.02539 | -17.20128 | 37019 ft | 500 kts | 87° |
| 2026-05-06 10:20 | 55.02504 | -17.08051 | 37019 ft | 501 kts | 87° |
| 2026-05-06 10:20 | 55.02456 | -16.95972 | 37008 ft | 500 kts | 87° |
| 2026-05-06 10:21 | 55.02398 | -16.83921 | 37014 ft | 500 kts | 87° |
| 2026-05-06 10:21 | 55.02327 | -16.71834 | 36994 ft | 500 kts | 87° |
| 2026-05-06 10:22 | 55.02243 | -16.59839 | 36990 ft | 500 kts | 87° |
| 2026-05-06 10:22 | 55.02147 | -16.47767 | 37008 ft | 499 kts | 87° |
| 2026-05-06 10:23 | 55.02042 | -16.35703 | 37023 ft | 499 kts | 87° |
| 2026-05-06 10:23 | 55.01924 | -16.23691 | 37019 ft | 499 kts | 88° |
| 2026-05-06 10:24 | 55.01792 | -16.11651 | 37012 ft | 500 kts | 88° |
| 2026-05-06 10:24 | 55.01649 | -15.99651 | 37017 ft | 500 kts | 88° |
| 2026-05-06 10:25 | 55.01493 | -15.87570 | 37017 ft | 500 kts | 88° |
| 2026-05-06 10:25 | 55.01326 | -15.75494 | 37013 ft | 500 kts | 88° |
| 2026-05-06 10:26 | 55.01149 | -15.63474 | 37019 ft | 499 kts | 88° |
| 2026-05-06 10:26 | 55.00960 | -15.51436 | 37017 ft | 499 kts | 88° |
| 2026-05-06 10:27 | 55.00756 | -15.39435 | 37015 ft | 500 kts | 88° |
| 2026-05-06 10:27 | 55.00542 | -15.27410 | 37016 ft | 500 kts | 89° |
| 2026-05-06 10:28 | 55.00313 | -15.15299 | 37017 ft | 500 kts | 89° |
| 2026-05-06 10:28 | 55.00074 | -15.03299 | 37019 ft | 500 kts | 89° |
| 2026-05-06 10:29 | 55.00025 | -14.91229 | 37018 ft | 499 kts | 86° |
| 2026-05-06 10:29 | 55.00070 | -14.79231 | 37015 ft | 499 kts | 86° |
| 2026-05-06 10:30 | 55.00101 | -14.67169 | 37012 ft | 499 kts | 86° |
| 2026-05-06 10:30 | 55.00113 | -14.55225 | 37019 ft | 498 kts | 86° |
| 2026-05-06 10:31 | 55.00112 | -14.43212 | 37013 ft | 498 kts | 86° |
| 2026-05-06 10:31 | 55.00098 | -14.31175 | 37016 ft | 499 kts | 86° |
| 2026-05-06 10:32 | 55.00071 | -14.19209 | 37015 ft | 499 kts | 86° |
| 2026-05-06 10:32 | 54.99894 | -14.07097 | 37013 ft | 501 kts | 91° |
| 2026-05-06 10:33 | 54.98991 | -13.95125 | 37019 ft | 504 kts | 97° |
| 2026-05-06 10:33 | 54.97303 | -13.83359 | 37027 ft | 505 kts | 103° |
| 2026-05-06 10:34 | 54.95354 | -13.71678 | 37026 ft | 504 kts | 103° |
| 2026-05-06 10:34 | 54.93400 | -13.60017 | 37026 ft | 504 kts | 103° |
| 2026-05-06 10:35 | 54.91447 | -13.48374 | 37027 ft | 504 kts | 103° |
| 2026-05-06 10:35 | 54.89494 | -13.36780 | 37027 ft | 503 kts | 103° |
| 2026-05-06 10:36 | 54.87526 | -13.25168 | 37026 ft | 504 kts | 104° |
| 2026-05-06 10:36 | 54.85546 | -13.13555 | 37028 ft | 504 kts | 104° |
| 2026-05-06 10:37 | 54.83555 | -13.01966 | 37025 ft | 503 kts | 104° |
| 2026-05-06 10:37 | 54.81550 | -12.90373 | 37027 ft | 503 kts | 103° |
| 2026-05-06 10:38 | 54.79548 | -12.78853 | 37034 ft | 502 kts | 103° |
| 2026-05-06 10:38 | 54.77520 | -12.67268 | 37038 ft | 502 kts | 103° |
| 2026-05-06 10:39 | 54.75503 | -12.55819 | 37040 ft | 502 kts | 103° |
| 2026-05-06 10:39 | 54.73457 | -12.44279 | 37041 ft | 501 kts | 103° |
| 2026-05-06 10:40 | 54.71407 | -12.32790 | 37042 ft | 502 kts | 104° |
| 2026-05-06 10:40 | 54.69352 | -12.21344 | 37041 ft | 501 kts | 104° |
| 2026-05-06 10:41 | 54.67290 | -12.09931 | 37041 ft | 501 kts | 104° |
| 2026-05-06 10:41 | 54.65209 | -11.98489 | 37042 ft | 501 kts | 104° |
| 2026-05-06 10:42 | 54.63127 | -11.87108 | 37035 ft | 501 kts | 104° |
| 2026-05-06 10:42 | 54.61024 | -11.75682 | 37031 ft | 501 kts | 104° |
| 2026-05-06 10:43 | 54.58924 | -11.64338 | 37031 ft | 500 kts | 104° |
| 2026-05-06 10:44 | 54.55747 | -11.47313 | 37038 ft | 500 kts | 104° |
| 2026-05-06 10:44 | 54.53615 | -11.35975 | 37034 ft | 499 kts | 104° |
| 2026-05-06 10:45 | 54.51470 | -11.24635 | 37033 ft | 500 kts | 105° |
| 2026-05-06 10:45 | 54.49313 | -11.13300 | 37034 ft | 500 kts | 105° |
| 2026-05-06 10:46 | 54.47162 | -11.02066 | 37032 ft | 499 kts | 105° |
| 2026-05-06 10:46 | 54.44985 | -10.90763 | 37036 ft | 498 kts | 105° |
| 2026-05-06 10:47 | 54.42818 | -10.79573 | 37037 ft | 499 kts | 105° |
| 2026-05-06 10:47 | 54.40625 | -10.68314 | 37036 ft | 498 kts | 105° |
| 2026-05-06 10:48 | 54.38430 | -10.57112 | 37034 ft | 499 kts | 105° |
| 2026-05-06 10:48 | 54.36219 | -10.45893 | 37035 ft | 498 kts | 105° |
| 2026-05-06 10:49 | 54.33993 | -10.34668 | 37036 ft | 498 kts | 106° |
| 2026-05-06 10:49 | 54.31768 | -10.23505 | 37034 ft | 498 kts | 106° |
| 2026-05-06 10:50 | 54.29528 | -10.12332 | 37033 ft | 497 kts | 107° |
| 2026-05-06 10:50 | 54.27289 | -10.01226 | 37040 ft | 496 kts | 107° |
| 2026-05-06 10:51 | 54.25035 | -9.90115 | 37034 ft | 497 kts | 107° |
| 2026-05-06 10:51 | 54.22769 | -9.79009 | 37036 ft | 496 kts | 107° |
| 2026-05-06 10:52 | 54.20497 | -9.67934 | 37037 ft | 497 kts | 107° |
| 2026-05-06 10:52 | 54.18220 | -9.56888 | 37033 ft | 497 kts | 107° |
| 2026-05-06 10:53 | 54.15933 | -9.45854 | 37029 ft | 496 kts | 107° |
| 2026-05-06 10:53 | 54.13621 | -9.34770 | 37033 ft | 495 kts | 108° |
| 2026-05-06 10:54 | 54.11323 | -9.23804 | 37036 ft | 495 kts | 108° |
| 2026-05-06 10:54 | 54.09005 | -9.12813 | 37031 ft | 495 kts | 108° |
| 2026-05-06 10:54 | 54.07836 | -9.07284 | 37261 ft | 495 kts | 108° |
| 2026-05-06 10:55 | 54.06671 | -9.01805 | 37183 ft | 494 kts | 108° |
| 2026-05-06 10:55 | 54.05521 | -8.96405 | 36799 ft | 493 kts | 108° |
| 2026-05-06 10:55 | 54.04355 | -8.90937 | 36921 ft | 494 kts | 108° |
| 2026-05-06 10:56 | 54.02000 | -8.79942 | 37263 ft | 495 kts | 108° |
| 2026-05-06 10:56 | 54.00831 | -8.74507 | 37153 ft | 493 kts | 108° |
| 2026-05-06 10:56 | 53.99667 | -8.69113 | 37098 ft | 493 kts | 107° |
| 2026-05-06 10:57 | 53.97303 | -8.58195 | 37051 ft | 492 kts | 108° |
| 2026-05-06 10:57 | 53.94941 | -8.47342 | 37037 ft | 491 kts | 108° |
| 2026-05-06 10:58 | 53.92579 | -8.36549 | 37030 ft | 491 kts | 108° |
| 2026-05-06 10:58 | 53.90196 | -8.25718 | 37027 ft | 491 kts | 109° |
| 2026-05-06 10:59 | 53.87809 | -8.14921 | 37022 ft | 491 kts | 109° |
| 2026-05-06 10:59 | 53.85419 | -8.04165 | 37021 ft | 491 kts | 109° |
| 2026-05-06 11:00 | 53.83011 | -7.93384 | 37014 ft | 491 kts | 109° |
| 2026-05-06 11:00 | 53.80596 | -7.82635 | 37012 ft | 491 kts | 109° |
| 2026-05-06 11:01 | 53.78180 | -7.71936 | 37012 ft | 491 kts | 109° |
| 2026-05-06 11:01 | 53.75735 | -7.61156 | 37012 ft | 491 kts | 109° |
| 2026-05-06 11:02 | 53.73302 | -7.50489 | 37008 ft | 491 kts | 109° |
| 2026-05-06 11:02 | 53.70841 | -7.39755 | 37012 ft | 491 kts | 109° |
| 2026-05-06 11:03 | 53.68372 | -7.29034 | 37012 ft | 491 kts | 110° |
| 2026-05-06 11:03 | 53.65911 | -7.18401 | 37013 ft | 491 kts | 110° |
| 2026-05-06 11:04 | 53.63429 | -7.07737 | 37009 ft | 491 kts | 110° |
| 2026-05-06 11:04 | 53.60928 | -6.97045 | 37013 ft | 491 kts | 110° |
| 2026-05-06 11:05 | 53.58428 | -6.86407 | 37019 ft | 492 kts | 110° |
| 2026-05-06 11:05 | 53.55914 | -6.75766 | 37021 ft | 492 kts | 110° |
| 2026-05-06 11:06 | 53.53394 | -6.65144 | 37026 ft | 492 kts | 111° |
| 2026-05-06 11:06 | 53.50857 | -6.54512 | 37031 ft | 492 kts | 111° |
| 2026-05-06 11:07 | 53.48324 | -6.43945 | 37031 ft | 491 kts | 111° |
| 2026-05-06 11:07 | 53.45760 | -6.33299 | 37034 ft | 492 kts | 111° |
| 2026-05-06 11:08 | 53.43208 | -6.22754 | 37038 ft | 492 kts | 112° |
| 2026-05-06 11:08 | 53.40643 | -6.12207 | 37033 ft | 492 kts | 112° |
| 2026-05-06 11:09 | 53.38060 | -6.01637 | 37036 ft | 492 kts | 112° |
| 2026-05-06 11:09 | 53.35464 | -5.91067 | 37040 ft | 493 kts | 112° |
| 2026-05-06 11:10 | 53.32852 | -5.80487 | 37041 ft | 492 kts | 112° |
| 2026-05-06 11:10 | 53.30246 | -5.69976 | 37042 ft | 492 kts | 112° |
| 2026-05-06 11:11 | 53.27632 | -5.59486 | 37042 ft | 491 kts | 112° |
| 2026-05-06 11:11 | 53.25009 | -5.49007 | 37043 ft | 491 kts | 112° |
| 2026-05-06 11:12 | 53.22377 | -5.38539 | 37043 ft | 491 kts | 112° |
| 2026-05-06 11:12 | 53.19737 | -5.28087 | 37042 ft | 491 kts | 113° |
| 2026-05-06 11:13 | 53.17088 | -5.17654 | 37043 ft | 491 kts | 113° |
| 2026-05-06 11:13 | 53.14415 | -5.07176 | 37043 ft | 491 kts | 113° |
| 2026-05-06 11:14 | 53.11758 | -4.96809 | 37045 ft | 491 kts | 113° |
| 2026-05-06 11:14 | 53.09069 | -4.86364 | 37046 ft | 491 kts | 113° |
| 2026-05-06 11:15 | 53.06391 | -4.76010 | 37048 ft | 491 kts | 113° |
| 2026-05-06 11:15 | 53.03693 | -4.65627 | 37048 ft | 491 kts | 113° |
| 2026-05-06 11:16 | 53.00998 | -4.55298 | 37049 ft | 491 kts | 113° |
| 2026-05-06 11:16 | 52.98279 | -4.44926 | 37049 ft | 492 kts | 114° |
| 2026-05-06 11:17 | 52.95545 | -4.34551 | 37044 ft | 491 kts | 114° |
| 2026-05-06 11:17 | 52.92818 | -4.24249 | 37048 ft | 491 kts | 114° |
| 2026-05-06 11:18 | 52.90076 | -4.13930 | 37044 ft | 491 kts | 114° |
| 2026-05-06 11:18 | 52.87335 | -4.03665 | 37037 ft | 490 kts | 114° |
| 2026-05-06 11:19 | 52.84577 | -3.93383 | 37037 ft | 490 kts | 114° |
| 2026-05-06 11:19 | 52.81833 | -3.83202 | 37028 ft | 490 kts | 114° |
| 2026-05-06 11:20 | 52.79051 | -3.72921 | 37009 ft | 490 kts | 114° |
| 2026-05-06 11:20 | 52.76273 | -3.62697 | 37004 ft | 490 kts | 115° |
| 2026-05-06 11:21 | 52.73483 | -3.52480 | 37003 ft | 490 kts | 115° |
| 2026-05-06 11:21 | 52.70690 | -3.42298 | 37009 ft | 490 kts | 115° |
| 2026-05-06 11:22 | 52.67892 | -3.32140 | 37014 ft | 489 kts | 115° |
| 2026-05-06 11:22 | 52.65074 | -3.21954 | 37021 ft | 489 kts | 115° |
| 2026-05-06 11:23 | 52.62264 | -3.11845 | 37027 ft | 489 kts | 115° |
| 2026-05-06 11:23 | 52.59439 | -3.01727 | 37024 ft | 488 kts | 115° |
| 2026-05-06 11:24 | 52.56623 | -2.91678 | 37022 ft | 488 kts | 115° |
| 2026-05-06 11:24 | 52.53773 | -2.81552 | 37025 ft | 488 kts | 116° |
| 2026-05-06 11:25 | 52.50932 | -2.71504 | 37026 ft | 488 kts | 116° |
| 2026-05-06 11:25 | 52.48083 | -2.61470 | 37023 ft | 488 kts | 116° |
| 2026-05-06 11:26 | 52.45227 | -2.51458 | 37028 ft | 488 kts | 116° |
| 2026-05-06 11:26 | 52.42359 | -2.41442 | 37028 ft | 488 kts | 116° |
| 2026-05-06 11:27 | 52.39475 | -2.31413 | 37028 ft | 487 kts | 116° |
| 2026-05-06 11:27 | 52.36595 | -2.21441 | 37027 ft | 487 kts | 116° |
| 2026-05-06 11:28 | 52.33695 | -2.11446 | 36896 ft | 487 kts | 116° |
| 2026-05-06 11:28 | 52.32251 | -2.06480 | 36706 ft | 485 kts | 116° |
| 2026-05-06 11:28 | 52.30819 | -2.01570 | 36506 ft | 482 kts | 116° |
| 2026-05-06 11:28 | 52.29381 | -1.96646 | 36258 ft | 480 kts | 116° |
| 2026-05-06 11:29 | 52.27944 | -1.91735 | 35881 ft | 480 kts | 116° |
| 2026-05-06 11:29 | 52.26511 | -1.86853 | 35364 ft | 481 kts | 116° |
| 2026-05-06 11:29 | 52.25063 | -1.81929 | 34750 ft | 484 kts | 116° |
| 2026-05-06 11:29 | 52.23622 | -1.77040 | 34034 ft | 486 kts | 116° |
| 2026-05-06 11:30 | 52.22166 | -1.72111 | 33362 ft | 486 kts | 116° |
| 2026-05-06 11:30 | 52.20692 | -1.67128 | 32702 ft | 486 kts | 116° |
| 2026-05-06 11:30 | 52.19229 | -1.62193 | 32038 ft | 486 kts | 116° |
| 2026-05-06 11:30 | 52.17768 | -1.57277 | 31382 ft | 485 kts | 116° |
| 2026-05-06 11:31 | 52.16315 | -1.52392 | 30722 ft | 486 kts | 116° |
| 2026-05-06 11:31 | 52.14844 | -1.47459 | 30044 ft | 485 kts | 116° |
| 2026-05-06 11:31 | 52.13371 | -1.42529 | 29348 ft | 485 kts | 116° |
| 2026-05-06 11:31 | 52.11904 | -1.37631 | 28661 ft | 485 kts | 116° |
| 2026-05-06 11:32 | 52.10433 | -1.32724 | 27957 ft | 485 kts | 117° |
| 2026-05-06 11:32 | 52.08964 | -1.27835 | 27455 ft | 482 kts | 117° |
| 2026-05-06 11:32 | 52.07499 | -1.22974 | 26952 ft | 479 kts | 117° |
| 2026-05-06 11:32 | 52.06048 | -1.18165 | 26476 ft | 475 kts | 117° |
| 2026-05-06 11:33 | 52.04600 | -1.13377 | 26014 ft | 470 kts | 117° |
| 2026-05-06 11:33 | 52.03167 | -1.08645 | 25564 ft | 465 kts | 117° |
| 2026-05-06 11:33 | 52.01763 | -1.04022 | 25127 ft | 460 kts | 117° |
| 2026-05-06 11:33 | 52.00358 | -0.99406 | 24688 ft | 456 kts | 117° |
| 2026-05-06 11:34 | 51.98967 | -0.94847 | 24240 ft | 452 kts | 117° |
| 2026-05-06 11:34 | 51.97568 | -0.90268 | 23788 ft | 448 kts | 117° |
| 2026-05-06 11:34 | 51.96199 | -0.85798 | 23345 ft | 445 kts | 117° |
| 2026-05-06 11:34 | 51.94840 | -0.81370 | 22909 ft | 441 kts | 117° |
| 2026-05-06 11:35 | 51.93471 | -0.76913 | 22469 ft | 438 kts | 117° |
| 2026-05-06 11:35 | 51.92123 | -0.72534 | 22022 ft | 434 kts | 117° |
| 2026-05-06 11:35 | 51.90799 | -0.68238 | 21595 ft | 431 kts | 117° |
| 2026-05-06 11:35 | 51.89463 | -0.63912 | 21154 ft | 428 kts | 117° |
| 2026-05-06 11:36 | 51.88144 | -0.59649 | 20714 ft | 424 kts | 116° |
| 2026-05-06 11:36 | 51.86818 | -0.55368 | 20276 ft | 421 kts | 116° |
| 2026-05-06 11:36 | 51.85521 | -0.51191 | 19843 ft | 418 kts | 116° |
| 2026-05-06 11:36 | 51.84226 | -0.47027 | 19402 ft | 415 kts | 116° |
| 2026-05-06 11:37 | 51.82948 | -0.42924 | 18973 ft | 412 kts | 116° |
| 2026-05-06 11:37 | 51.81655 | -0.38782 | 18531 ft | 409 kts | 116° |
| 2026-05-06 11:37 | 51.80386 | -0.34724 | 18098 ft | 406 kts | 117° |
| 2026-05-06 11:37 | 51.79123 | -0.30690 | 17654 ft | 403 kts | 117° |
| 2026-05-06 11:38 | 51.77864 | -0.26674 | 17221 ft | 400 kts | 117° |
| 2026-05-06 11:38 | 51.76619 | -0.22712 | 16788 ft | 398 kts | 117° |
| 2026-05-06 11:38 | 51.75362 | -0.18717 | 16353 ft | 395 kts | 117° |
| 2026-05-06 11:38 | 51.74126 | -0.14799 | 15957 ft | 391 kts | 117° |
| 2026-05-06 11:39 | 51.72913 | -0.10954 | 15824 ft | 379 kts | 117° |
| 2026-05-06 11:39 | 51.71733 | -0.07223 | 15707 ft | 367 kts | 117° |
| 2026-05-06 11:39 | 51.70596 | -0.03633 | 15541 ft | 356 kts | 117° |
| 2026-05-06 11:39 | 51.69489 | -0.00146 | 15438 ft | 344 kts | 117° |
| 2026-05-06 11:40 | 51.68417 | 0.03227 | 15322 ft | 333 kts | 117° |
| 2026-05-06 11:40 | 51.67386 | 0.06469 | 15224 ft | 322 kts | 117° |
| 2026-05-06 11:40 | 51.66177 | 0.09382 | 15073 ft | 313 kts | 138° |
| 2026-05-06 11:40 | 51.64344 | 0.11139 | 14965 ft | 302 kts | 165° |
| 2026-05-06 11:41 | 51.62285 | 0.11505 | 14717 ft | 298 kts | 188° |
| 2026-05-06 11:41 | 51.60341 | 0.10522 | 14352 ft | 295 kts | 212° |
| 2026-05-06 11:41 | 51.58680 | 0.08676 | 14028 ft | 293 kts | 218° |
| 2026-05-06 11:41 | 51.57040 | 0.06750 | 13706 ft | 293 kts | 218° |
| 2026-05-06 11:42 | 51.55392 | 0.04833 | 13390 ft | 292 kts | 217° |
| 2026-05-06 11:42 | 51.53738 | 0.02932 | 13077 ft | 291 kts | 217° |
| 2026-05-06 11:42 | 51.52102 | 0.01067 | 12765 ft | 290 kts | 217° |
| 2026-05-06 11:42 | 51.50452 | -0.00803 | 12449 ft | 290 kts | 217° |
| 2026-05-06 11:43 | 51.48804 | -0.02662 | 12140 ft | 288 kts | 217° |
| 2026-05-06 11:43 | 51.47169 | -0.04504 | 11836 ft | 287 kts | 217° |
| 2026-05-06 11:43 | 51.45541 | -0.06335 | 11533 ft | 286 kts | 217° |
| 2026-05-06 11:44 | 51.42319 | -0.09953 | 10930 ft | 284 kts | 217° |
| 2026-05-06 11:44 | 51.40713 | -0.11755 | 10627 ft | 283 kts | 217° |
| 2026-05-06 11:44 | 51.39090 | -0.13573 | 10326 ft | 281 kts | 217° |
| 2026-05-06 11:44 | 51.37508 | -0.15344 | 10035 ft | 280 kts | 217° |
| 2026-05-06 11:45 | 51.35910 | -0.17133 | 9738 ft | 279 kts | 217° |
| 2026-05-06 11:45 | 51.34312 | -0.18918 | 9437 ft | 279 kts | 217° |
| 2026-05-06 11:45 | 51.32746 | -0.20666 | 9144 ft | 278 kts | 217° |
| 2026-05-06 11:45 | 51.31166 | -0.22427 | 8854 ft | 277 kts | 217° |
| 2026-05-06 11:46 | 51.29584 | -0.24205 | 8557 ft | 276 kts | 220° |
| 2026-05-06 11:46 | 51.28386 | -0.26482 | 8226 ft | 271 kts | 249° |
| 2026-05-06 11:46 | 51.28036 | -0.29359 | 7924 ft | 264 kts | 277° |
| 2026-05-06 11:46 | 51.28414 | -0.32176 | 7650 ft | 259 kts | 288° |
| 2026-05-06 11:47 | 51.28898 | -0.34937 | 7369 ft | 259 kts | 288° |
| 2026-05-06 11:47 | 51.29366 | -0.37692 | 7125 ft | 256 kts | 288° |
| 2026-05-06 11:47 | 51.29806 | -0.40363 | 7069 ft | 244 kts | 287° |
| 2026-05-06 11:47 | 51.30220 | -0.42936 | 7014 ft | 233 kts | 288° |
| 2026-05-06 11:48 | 51.30645 | -0.45404 | 6976 ft | 231 kts | 291° |
| 2026-05-06 11:48 | 51.31132 | -0.47836 | 6975 ft | 230 kts | 291° |
| 2026-05-06 11:48 | 51.31629 | -0.50282 | 6982 ft | 229 kts | 291° |
| 2026-05-06 11:48 | 51.32117 | -0.52687 | 6993 ft | 227 kts | 291° |
| 2026-05-06 11:49 | 51.32602 | -0.55090 | 6997 ft | 226 kts | 291° |
| 2026-05-06 11:49 | 51.33078 | -0.57453 | 6995 ft | 225 kts | 291° |
| 2026-05-06 11:49 | 51.33557 | -0.59838 | 6997 ft | 223 kts | 291° |
| 2026-05-06 11:49 | 51.34027 | -0.62180 | 7002 ft | 223 kts | 291° |
| 2026-05-06 11:50 | 51.34496 | -0.64518 | 7003 ft | 222 kts | 291° |
| 2026-05-06 11:50 | 51.34973 | -0.66878 | 6839 ft | 223 kts | 291° |
| 2026-05-06 11:50 | 51.35464 | -0.69275 | 6319 ft | 233 kts | 291° |
| 2026-05-06 11:50 | 51.35965 | -0.71723 | 6029 ft | 232 kts | 291° |
| 2026-05-06 11:51 | 51.36454 | -0.74130 | 6006 ft | 224 kts | 291° |
| 2026-05-06 11:51 | 51.36987 | -0.76438 | 5902 ft | 218 kts | 300° |
| 2026-05-06 11:51 | 51.37849 | -0.78432 | 5407 ft | 224 kts | 318° |
| 2026-05-06 11:51 | 51.39189 | -0.79629 | 4990 ft | 223 kts | 352° |
| 2026-05-06 11:52 | 51.40710 | -0.79575 | 4714 ft | 219 kts | 7° |
| 2026-05-06 11:52 | 51.42228 | -0.79300 | 4445 ft | 218 kts | 5° |
| 2026-05-06 11:52 | 51.43728 | -0.79041 | 4157 ft | 217 kts | 16° |
| 2026-05-06 11:52 | 51.44936 | -0.77673 | 3811 ft | 221 kts | 53° |
| 2026-05-06 11:53 | 51.45740 | -0.75591 | 3575 ft | 219 kts | 56° |
| 2026-05-06 11:53 | 51.46479 | -0.73508 | 3377 ft | 216 kts | 62° |
| 2026-05-06 11:53 | 51.47003 | -0.71256 | 3165 ft | 214 kts | 71° |
| 2026-05-06 11:53 | 51.47357 | -0.68945 | 2842 ft | 218 kts | 76° |
| 2026-05-06 11:54 | 51.47592 | -0.66509 | 2465 ft | 221 kts | 80° |
| 2026-05-06 11:54 | 51.47697 | -0.64082 | 2083 ft | 216 kts | 85° |
| 2026-05-06 11:54 | 51.47707 | -0.61734 | 1741 ft | 208 kts | 86° |
| 2026-05-06 11:54 | 51.47721 | -0.59460 | 1433 ft | 198 kts | 85° |
| 2026-05-06 11:55 | 51.47732 | -0.57339 | 1176 ft | 187 kts | 85° |
| 2026-05-06 11:55 | 51.47735 | -0.55300 | 934 ft | 176 kts | 85° |
| 2026-05-06 11:55 | 51.47738 | -0.53415 | 714 ft | 164 kts | 85° |
| 2026-05-06 11:55 | 51.47741 | -0.51641 | 493 ft | 153 kts | 85° |
| 2026-05-06 11:56 | 51.47746 | -0.50005 | 297 ft | 148 kts | 85° |
| 2026-05-06 11:56 | 51.47749 | -0.48353 | 122 ft | 146 kts | 85° |
| 2026-05-06 11:56 | 51.47760 | -0.46911 | 95 ft | 102 kts | 89° |
| 2026-05-06 11:56 | 51.47759 | -0.46124 | 92 ft | 38 kts | 88° |
| 2026-05-06 11:57 | 51.47763 | -0.45791 | 91 ft | 30 kts | 87° |
| 2026-05-06 11:57 | 51.47752 | -0.45541 | 93 ft | 18 kts | 117° |
| 2026-05-06 11:57 | 51.47677 | -0.45473 | 94 ft | 6 kts | 173° |
| 2026-05-06 11:57 | 51.47658 | -0.45471 | 94 ft | 0 kts | 176° |
| 2026-05-06 11:58 | 51.47657 | -0.45471 | 94 ft | 0 kts | 176° |
| 2026-05-06 11:58 | 51.47655 | -0.45470 | 94 ft | 0 kts | 177° |
| 2026-05-06 11:58 | 51.47653 | -0.45470 | 94 ft | 1 kts | 177° |
| 2026-05-06 11:59 | 51.47620 | -0.45484 | 94 ft | 7 kts | 216° |
| 2026-05-06 11:59 | 51.47597 | -0.45591 | 94 ft | 12 kts | 265° |
| 2026-05-06 11:59 | 51.47595 | -0.45756 | 93 ft | 17 kts | 269° |
| 2026-05-06 11:59 | 51.47594 | -0.45944 | 91 ft | 17 kts | 269° |
| 2026-05-06 12:00 | 51.47593 | -0.46136 | 90 ft | 18 kts | 269° |
| 2026-05-06 12:00 | 51.47592 | -0.46353 | 90 ft | 19 kts | 269° |
| 2026-05-06 12:00 | 51.47592 | -0.46550 | 92 ft | 14 kts | 269° |
| 2026-05-06 12:00 | 51.47592 | -0.46682 | 92 ft | 13 kts | 269° |
| 2026-05-06 12:01 | 51.47588 | -0.46814 | 92 ft | 8 kts | 260° |
| 2026-05-06 12:01 | 51.47586 | -0.46830 | 92 ft | 0 kts | 257° |
| 2026-05-06 12:01 | 51.47586 | -0.46831 | 91 ft | 1 kts | 257° |
| 2026-05-06 12:01 | 51.47573 | -0.46881 | 91 ft | 8 kts | 236° |
| 2026-05-06 12:02 | 51.47500 | -0.46910 | 90 ft | 14 kts | 171° |
| 2026-05-06 12:02 | 51.47387 | -0.46874 | 88 ft | 18 kts | 170° |
| 2026-05-06 12:02 | 51.47250 | -0.46865 | 87 ft | 20 kts | 179° |
| 2026-05-06 12:02 | 51.47104 | -0.46865 | 87 ft | 21 kts | 180° |
| 2026-05-06 12:03 | 51.46971 | -0.46864 | 87 ft | 8 kts | 179° |
| 2026-05-06 12:03 | 51.46928 | -0.46890 | 88 ft | 6 kts | 242° |
| 2026-05-06 12:03 | 51.46920 | -0.46974 | 88 ft | 4 kts | 266° |
| 2026-05-06 12:03 | 51.46919 | -0.46980 | 88 ft | 0 kts | 266° |